<?xml version="1.0" encoding="UTF-8"?>
<gpx version="1.1" creator="2bulu-scraper" xmlns="http://www.topografix.com/GPX/1/1">
  <metadata><name>自贡五条沟</name><desc>source: 2bulu.com trackId=86213021; exported 2026-09-01T14:59:52.293Z</desc>
    <bounds minlat="28.9984072" minlon="104.7665574" maxlat="29.0174342" maxlon="104.7858098"/>
    <link href="https://www.2bulu.com/track/t-VK9MJ33sUYrp%252FR2KBg5Tzw%253D%253D.htm"><text>2bulu 源页面</text></link>
  </metadata>
  <wpt lat="29.0090237" lon="104.7853928"><ele>399</ele><name>
        </name></wpt>
  <wpt lat="29.017366" lon="104.7823707"><ele>346</ele><name>
        </name></wpt>
  <wpt lat="29.0165018" lon="104.7819147"><ele>340</ele><name>
        </name></wpt>
  <wpt lat="29.0158599" lon="104.7759628"><ele>317</ele><name>
        </name></wpt>
  <wpt lat="29.0158599" lon="104.7759628"><ele>317</ele><name>
        </name></wpt>
  <wpt lat="29.014662" lon="104.7757486"><ele>280</ele><name>
        </name></wpt>
  <wpt lat="29.0148487" lon="104.7748337"><ele>332</ele><name>
        </name></wpt>
  <wpt lat="29.0110455" lon="104.7720795"><ele>349</ele><name>
        </name></wpt>
  <wpt lat="29.0080576" lon="104.7743931"><ele>285</ele><name>
        </name></wpt>
  <wpt lat="29.0071599" lon="104.7856279"><ele>365</ele><name>
        </name></wpt>
  <wpt lat="29.0045112" lon="104.785253"><ele>364</ele><name>
        </name></wpt>
  <wpt lat="29.0005636" lon="104.7833122"><ele>358</ele><name>
        </name></wpt>
  <wpt lat="29.000885" lon="104.7804794"><ele>418</ele><name>
        </name></wpt>
  <wpt lat="29.0009414" lon="104.7795735"><ele>307</ele><name>
        </name></wpt>
  <wpt lat="29.000807" lon="104.7792891"><ele>302</ele><name>
        </name></wpt>
  <wpt lat="29.000786" lon="104.7791883"><ele>304</ele><name>
        </name></wpt>
  <wpt lat="29.0010269" lon="104.7787752"><ele>302</ele><name>
        </name></wpt>
  <wpt lat="29.0011246" lon="104.7787577"><ele>302</ele><name>
        </name></wpt>
  <wpt lat="29.0010782" lon="104.7783426"><ele>288</ele><name>
        </name></wpt>
  <wpt lat="29.0007247" lon="104.7780185"><ele>291</ele><name>
        </name></wpt>
  <wpt lat="28.9994453" lon="104.7780274"><ele>291</ele><name>
        </name></wpt>
  <wpt lat="28.998989" lon="104.7780933"><ele>313</ele><name>
        </name></wpt>
  <wpt lat="29.0039817" lon="104.780783"><ele>284</ele><name>
        </name></wpt>
  <wpt lat="29.0054816" lon="104.7808114"><ele>309</ele><name>
        </name></wpt>
  <wpt lat="29.0043498" lon="104.782606"><ele>326</ele><name>
        </name></wpt>
  <wpt lat="29.0043498" lon="104.782606"><ele>326</ele><name>
        </name></wpt>
  <wpt lat="29.0048122" lon="104.7830048"><ele>395</ele><name>
        </name></wpt>
  <wpt lat="29.0048122" lon="104.7830048"><ele>395</ele><name>
        </name></wpt>
  <wpt lat="29.0054605" lon="104.7842293"><ele>338</ele><name>
        </name></wpt>
  <trk><name>自贡五条沟</name>
      <trkseg>
        <trkpt lat="29.0166947" lon="104.7824267"><ele>344.19</ele><time>2026-06-05T17:13:35.000Z</time></trkpt>
        <trkpt lat="29.0167851" lon="104.7824389"><ele>344.19</ele><time>2026-06-05T17:13:49.000Z</time></trkpt>
        <trkpt lat="29.0168756" lon="104.782422"><ele>345.1</ele><time>2026-06-05T17:13:57.000Z</time></trkpt>
        <trkpt lat="29.0169688" lon="104.782423"><ele>345.74</ele><time>2026-06-05T17:14:08.000Z</time></trkpt>
        <trkpt lat="29.0170704" lon="104.7824084"><ele>346.02</ele><time>2026-06-05T17:14:18.000Z</time></trkpt>
        <trkpt lat="29.0171679" lon="104.7823934"><ele>345.71</ele><time>2026-06-05T17:14:27.000Z</time></trkpt>
        <trkpt lat="29.0172716" lon="104.7823855"><ele>345.21</ele><time>2026-06-05T17:14:39.000Z</time></trkpt>
        <trkpt lat="29.017366" lon="104.7823707"><ele>344.99</ele><time>2026-06-05T17:14:45.000Z</time></trkpt>
        <trkpt lat="29.0174342" lon="104.7823086"><ele>344.98</ele><time>2026-06-05T17:15:15.000Z</time></trkpt>
        <trkpt lat="29.0173873" lon="104.782236"><ele>345.71</ele><time>2026-06-05T17:16:13.000Z</time></trkpt>
        <trkpt lat="29.0173015" lon="104.7821677"><ele>346.19</ele><time>2026-06-05T17:16:25.000Z</time></trkpt>
        <trkpt lat="29.0173015" lon="104.7821677"><ele>346.19</ele><time>2026-06-05T17:16:25.000Z</time></trkpt>
        <trkpt lat="29.0172302" lon="104.7820472"><ele>340.98</ele><time>2026-06-05T17:16:48.000Z</time></trkpt>
        <trkpt lat="29.0172302" lon="104.7820472"><ele>340.98</ele><time>2026-06-05T17:16:49.000Z</time></trkpt>
        <trkpt lat="29.0171397" lon="104.7819978"><ele>340.98</ele><time>2026-06-05T17:17:07.000Z</time></trkpt>
        <trkpt lat="29.0170656" lon="104.7820437"><ele>339.58</ele><time>2026-06-05T17:17:17.000Z</time></trkpt>
        <trkpt lat="29.0169878" lon="104.7821092"><ele>334.81</ele><time>2026-06-05T17:17:29.000Z</time></trkpt>
        <trkpt lat="29.0169054" lon="104.78217"><ele>333.01</ele><time>2026-06-05T17:17:43.000Z</time></trkpt>
        <trkpt lat="29.0168197" lon="104.7821564"><ele>332.42</ele><time>2026-06-05T17:17:57.000Z</time></trkpt>
        <trkpt lat="29.0167256" lon="104.7821478"><ele>335.93</ele><time>2026-06-05T17:18:25.000Z</time></trkpt>
        <trkpt lat="29.0166471" lon="104.7820852"><ele>337.51</ele><time>2026-06-05T17:18:37.000Z</time></trkpt>
        <trkpt lat="29.0165904" lon="104.7819842"><ele>338.33</ele><time>2026-06-05T17:21:27.000Z</time></trkpt>
        <trkpt lat="29.0165018" lon="104.7819147"><ele>339.12</ele><time>2026-06-05T17:22:21.000Z</time></trkpt>
        <trkpt lat="29.0164652" lon="104.7819141"><ele>339.37</ele><time>2026-06-05T17:22:33.000Z</time></trkpt>
        <trkpt lat="29.0164025" lon="104.7818572"><ele>339.23</ele><time>2026-06-05T17:23:19.000Z</time></trkpt>
        <trkpt lat="29.0164338" lon="104.781782"><ele>335.66</ele><time>2026-06-05T17:24:19.000Z</time></trkpt>
        <trkpt lat="29.0164551" lon="104.781732"><ele>332.46</ele><time>2026-06-05T17:24:29.000Z</time></trkpt>
        <trkpt lat="29.0164505" lon="104.7816373"><ele>330.53</ele><time>2026-06-05T17:25:27.000Z</time></trkpt>
        <trkpt lat="29.0165215" lon="104.7816099"><ele>329.51</ele><time>2026-06-05T17:26:04.000Z</time></trkpt>
        <trkpt lat="29.0166091" lon="104.7816558"><ele>328.01</ele><time>2026-06-05T17:26:12.000Z</time></trkpt>
        <trkpt lat="29.0166713" lon="104.7816863"><ele>326.65</ele><time>2026-06-05T17:26:26.000Z</time></trkpt>
        <trkpt lat="29.0167441" lon="104.7816557"><ele>324.42</ele><time>2026-06-05T17:26:32.000Z</time></trkpt>
        <trkpt lat="29.0167562" lon="104.7815522"><ele>322.58</ele><time>2026-06-05T17:26:40.000Z</time></trkpt>
        <trkpt lat="29.0167654" lon="104.7814362"><ele>321.26</ele><time>2026-06-05T17:26:46.000Z</time></trkpt>
        <trkpt lat="29.0168134" lon="104.7813163"><ele>318.76</ele><time>2026-06-05T17:26:52.000Z</time></trkpt>
        <trkpt lat="29.0168536" lon="104.7812071"><ele>315.79</ele><time>2026-06-05T17:27:08.000Z</time></trkpt>
        <trkpt lat="29.0168973" lon="104.7811017"><ele>315.01</ele><time>2026-06-05T17:27:26.000Z</time></trkpt>
        <trkpt lat="29.0169087" lon="104.7809867"><ele>314.2</ele><time>2026-06-05T17:27:34.000Z</time></trkpt>
        <trkpt lat="29.0169578" lon="104.7808956"><ele>313.16</ele><time>2026-06-05T17:27:42.000Z</time></trkpt>
        <trkpt lat="29.0170354" lon="104.7808225"><ele>312.55</ele><time>2026-06-05T17:27:50.000Z</time></trkpt>
        <trkpt lat="29.0170054" lon="104.7807282"><ele>308.52</ele><time>2026-06-05T17:28:02.000Z</time></trkpt>
        <trkpt lat="29.016931" lon="104.7806512"><ele>309.48</ele><time>2026-06-05T17:28:08.000Z</time></trkpt>
        <trkpt lat="29.0168614" lon="104.7805676"><ele>304.98</ele><time>2026-06-05T17:28:16.000Z</time></trkpt>
        <trkpt lat="29.0168387" lon="104.7805359"><ele>303.08</ele><time>2026-06-05T17:28:24.000Z</time></trkpt>
        <trkpt lat="29.0168744" lon="104.7804466"><ele>304.89</ele><time>2026-06-05T17:28:40.000Z</time></trkpt>
        <trkpt lat="29.0169033" lon="104.780338"><ele>304.56</ele><time>2026-06-05T17:28:48.000Z</time></trkpt>
        <trkpt lat="29.0168675" lon="104.7802389"><ele>303.84</ele><time>2026-06-05T17:28:58.000Z</time></trkpt>
        <trkpt lat="29.0168028" lon="104.7801436"><ele>302.11</ele><time>2026-06-05T17:29:14.000Z</time></trkpt>
        <trkpt lat="29.016729" lon="104.7800531"><ele>301.45</ele><time>2026-06-05T17:29:23.000Z</time></trkpt>
        <trkpt lat="29.0166857" lon="104.7800297"><ele>300.63</ele><time>2026-06-05T17:29:27.000Z</time></trkpt>
        <trkpt lat="29.0166151" lon="104.7799976"><ele>300.08</ele><time>2026-06-05T17:29:44.000Z</time></trkpt>
        <trkpt lat="29.0165635" lon="104.7799233"><ele>299.35</ele><time>2026-06-05T17:30:02.000Z</time></trkpt>
        <trkpt lat="29.0164862" lon="104.7798724"><ele>298.24</ele><time>2026-06-05T17:30:16.000Z</time></trkpt>
        <trkpt lat="29.0164251" lon="104.7797978"><ele>296.89</ele><time>2026-06-05T17:30:32.000Z</time></trkpt>
        <trkpt lat="29.0163724" lon="104.7796817"><ele>295.75</ele><time>2026-06-05T17:30:50.000Z</time></trkpt>
        <trkpt lat="29.0163813" lon="104.7795632"><ele>293.03</ele><time>2026-06-05T17:31:02.000Z</time></trkpt>
        <trkpt lat="29.0164134" lon="104.7794475"><ele>290.44</ele><time>2026-06-05T17:31:16.000Z</time></trkpt>
        <trkpt lat="29.0165145" lon="104.7793866"><ele>289.26</ele><time>2026-06-05T17:32:22.000Z</time></trkpt>
        <trkpt lat="29.0165937" lon="104.7793336"><ele>291.56</ele><time>2026-06-05T17:32:44.000Z</time></trkpt>
        <trkpt lat="29.0165883" lon="104.7792357"><ele>295.13</ele><time>2026-06-05T17:33:18.000Z</time></trkpt>
        <trkpt lat="29.0164939" lon="104.7791489"><ele>297.87</ele><time>2026-06-05T17:34:34.000Z</time></trkpt>
        <trkpt lat="29.0164165" lon="104.7790851"><ele>298.7</ele><time>2026-06-05T17:34:44.000Z</time></trkpt>
        <trkpt lat="29.016409" lon="104.7789841"><ele>298.05</ele><time>2026-06-05T17:34:50.000Z</time></trkpt>
        <trkpt lat="29.016359" lon="104.7788998"><ele>296.39</ele><time>2026-06-05T17:35:00.000Z</time></trkpt>
        <trkpt lat="29.0162834" lon="104.7788175"><ele>295.23</ele><time>2026-06-05T17:35:10.000Z</time></trkpt>
        <trkpt lat="29.0161953" lon="104.7787538"><ele>294.8</ele><time>2026-06-05T17:35:20.000Z</time></trkpt>
        <trkpt lat="29.0161001" lon="104.7787172"><ele>294.85</ele><time>2026-06-05T17:35:30.000Z</time></trkpt>
        <trkpt lat="29.0159909" lon="104.7787169"><ele>294.89</ele><time>2026-06-05T17:35:40.000Z</time></trkpt>
        <trkpt lat="29.015881" lon="104.7787009"><ele>295.01</ele><time>2026-06-05T17:35:50.000Z</time></trkpt>
        <trkpt lat="29.0157988" lon="104.7786376"><ele>294.8</ele><time>2026-06-05T17:36:00.000Z</time></trkpt>
        <trkpt lat="29.015714" lon="104.7785866"><ele>294.31</ele><time>2026-06-05T17:36:08.000Z</time></trkpt>
        <trkpt lat="29.0156485" lon="104.7785083"><ele>293.77</ele><time>2026-06-05T17:36:16.000Z</time></trkpt>
        <trkpt lat="29.0156202" lon="104.7784088"><ele>292.51</ele><time>2026-06-05T17:36:42.000Z</time></trkpt>
        <trkpt lat="29.0156162" lon="104.7783573"><ele>290.78</ele><time>2026-06-05T17:36:54.000Z</time></trkpt>
        <trkpt lat="29.0156158" lon="104.7782635"><ele>290.05</ele><time>2026-06-05T17:37:30.000Z</time></trkpt>
        <trkpt lat="29.0156295" lon="104.7781525"><ele>289.07</ele><time>2026-06-05T17:38:16.000Z</time></trkpt>
        <trkpt lat="29.0156618" lon="104.7780464"><ele>288.66</ele><time>2026-06-05T17:39:00.000Z</time></trkpt>
        <trkpt lat="29.0157263" lon="104.7779576"><ele>288.87</ele><time>2026-06-05T17:39:30.000Z</time></trkpt>
        <trkpt lat="29.0157839" lon="104.7778699"><ele>289.07</ele><time>2026-06-05T17:40:02.000Z</time></trkpt>
        <trkpt lat="29.0158506" lon="104.7777852"><ele>289.02</ele><time>2026-06-05T17:40:20.000Z</time></trkpt>
        <trkpt lat="29.0159462" lon="104.7777296"><ele>290.18</ele><time>2026-06-05T17:41:08.000Z</time></trkpt>
        <trkpt lat="29.016045" lon="104.777731"><ele>290.4</ele><time>2026-06-05T17:41:48.000Z</time></trkpt>
        <trkpt lat="29.0161543" lon="104.7777503"><ele>289.62</ele><time>2026-06-05T17:42:56.000Z</time></trkpt>
        <trkpt lat="29.016068" lon="104.7776917"><ele>288.85</ele><time>2026-06-05T17:44:20.000Z</time></trkpt>
        <trkpt lat="29.0160117" lon="104.7775866"><ele>291.3</ele><time>2026-06-05T17:44:26.000Z</time></trkpt>
        <trkpt lat="29.0159546" lon="104.7774781"><ele>292.84</ele><time>2026-06-05T17:46:06.000Z</time></trkpt>
        <trkpt lat="29.0159195" lon="104.7773787"><ele>294.22</ele><time>2026-06-05T17:46:36.000Z</time></trkpt>
        <trkpt lat="29.0159472" lon="104.7772836"><ele>294.76</ele><time>2026-06-05T17:47:04.000Z</time></trkpt>
        <trkpt lat="29.0160136" lon="104.7772011"><ele>294.6</ele><time>2026-06-05T17:47:34.000Z</time></trkpt>
        <trkpt lat="29.016111" lon="104.7771692"><ele>295.33</ele><time>2026-06-05T17:48:18.000Z</time></trkpt>
        <trkpt lat="29.0162154" lon="104.7771681"><ele>296.6</ele><time>2026-06-05T17:48:26.000Z</time></trkpt>
        <trkpt lat="29.016264" lon="104.7770924"><ele>297.89</ele><time>2026-06-05T17:48:42.000Z</time></trkpt>
        <trkpt lat="29.0162835" lon="104.7769824"><ele>300.39</ele><time>2026-06-05T17:48:58.000Z</time></trkpt>
        <trkpt lat="29.0163332" lon="104.7768926"><ele>301.3</ele><time>2026-06-05T17:49:22.000Z</time></trkpt>
        <trkpt lat="29.0164152" lon="104.7768173"><ele>301.06</ele><time>2026-06-05T17:49:30.000Z</time></trkpt>
        <trkpt lat="29.0164588" lon="104.7767221"><ele>300.71</ele><time>2026-06-05T17:49:40.000Z</time></trkpt>
        <trkpt lat="29.0164751" lon="104.7765856"><ele>301.3</ele><time>2026-06-05T17:50:50.000Z</time></trkpt>
        <trkpt lat="29.0164296" lon="104.776486"><ele>303.81</ele><time>2026-06-05T17:51:08.000Z</time></trkpt>
        <trkpt lat="29.0163634" lon="104.7764096"><ele>305.34</ele><time>2026-06-05T17:51:20.000Z</time></trkpt>
        <trkpt lat="29.0162882" lon="104.7763418"><ele>307.88</ele><time>2026-06-05T17:52:40.000Z</time></trkpt>
        <trkpt lat="29.0162389" lon="104.7762555"><ele>310.21</ele><time>2026-06-05T17:54:10.000Z</time></trkpt>
        <trkpt lat="29.0161923" lon="104.7761647"><ele>312.81</ele><time>2026-06-05T17:54:22.000Z</time></trkpt>
        <trkpt lat="29.0161436" lon="104.7760772"><ele>315.11</ele><time>2026-06-05T17:55:18.000Z</time></trkpt>
        <trkpt lat="29.0160903" lon="104.7761218"><ele>317.57</ele><time>2026-06-05T17:55:44.000Z</time></trkpt>
        <trkpt lat="29.0160065" lon="104.7761042"><ele>319.17</ele><time>2026-06-05T17:56:32.000Z</time></trkpt>
        <trkpt lat="29.0159068" lon="104.7760555"><ele>319.97</ele><time>2026-06-05T17:59:20.000Z</time></trkpt>
        <trkpt lat="29.0158599" lon="104.7759628"><ele>320.21</ele><time>2026-06-05T18:01:02.000Z</time></trkpt>
        <trkpt lat="29.0157715" lon="104.7759879"><ele>316.51</ele><time>2026-06-05T18:05:18.000Z</time></trkpt>
        <trkpt lat="29.0156754" lon="104.7759871"><ele>314.97</ele><time>2026-06-05T18:07:38.000Z</time></trkpt>
        <trkpt lat="29.015586" lon="104.7759679"><ele>314.41</ele><time>2026-06-05T18:07:56.000Z</time></trkpt>
        <trkpt lat="29.0155383" lon="104.7760053"><ele>313.39</ele><time>2026-06-05T18:08:06.000Z</time></trkpt>
        <trkpt lat="29.0154704" lon="104.7759585"><ele>312.72</ele><time>2026-06-05T18:09:30.000Z</time></trkpt>
        <trkpt lat="29.0153761" lon="104.7759291"><ele>310.68</ele><time>2026-06-05T18:09:58.000Z</time></trkpt>
        <trkpt lat="29.015283" lon="104.7759228"><ele>307.67</ele><time>2026-06-05T18:10:12.000Z</time></trkpt>
        <trkpt lat="29.015184" lon="104.7758928"><ele>303.05</ele><time>2026-06-05T18:10:30.000Z</time></trkpt>
        <trkpt lat="29.0150865" lon="104.7758715"><ele>298.51</ele><time>2026-06-05T18:10:42.000Z</time></trkpt>
        <trkpt lat="29.0149904" lon="104.7758771"><ele>295.65</ele><time>2026-06-05T18:10:52.000Z</time></trkpt>
        <trkpt lat="29.014897" lon="104.7758925"><ele>293.87</ele><time>2026-06-05T18:11:06.000Z</time></trkpt>
        <trkpt lat="29.0148011" lon="104.7758976"><ele>292.52</ele><time>2026-06-05T18:11:32.000Z</time></trkpt>
        <trkpt lat="29.0147199" lon="104.7758344"><ele>291.59</ele><time>2026-06-05T18:13:06.000Z</time></trkpt>
        <trkpt lat="29.014662" lon="104.7757486"><ele>288.72</ele><time>2026-06-05T18:13:32.000Z</time></trkpt>
        <trkpt lat="29.0146535" lon="104.7756853"><ele>285.08</ele><time>2026-06-05T18:13:44.000Z</time></trkpt>
        <trkpt lat="29.014708" lon="104.7756206"><ele>282.72</ele><time>2026-06-05T18:14:04.000Z</time></trkpt>
        <trkpt lat="29.0147825" lon="104.7755368"><ele>281.07</ele><time>2026-06-05T18:14:14.000Z</time></trkpt>
        <trkpt lat="29.0148117" lon="104.7754996"><ele>279.53</ele><time>2026-06-05T18:14:16.000Z</time></trkpt>
        <trkpt lat="29.0148412" lon="104.7754186"><ele>278.51</ele><time>2026-06-05T18:14:24.000Z</time></trkpt>
        <trkpt lat="29.0148721" lon="104.7753079"><ele>277.99</ele><time>2026-06-05T18:14:32.000Z</time></trkpt>
        <trkpt lat="29.0148742" lon="104.7751814"><ele>277.12</ele><time>2026-06-05T18:14:46.000Z</time></trkpt>
        <trkpt lat="29.0149193" lon="104.7750872"><ele>275.28</ele><time>2026-06-05T18:14:54.000Z</time></trkpt>
        <trkpt lat="29.0149203" lon="104.7749872"><ele>273.55</ele><time>2026-06-05T18:15:12.000Z</time></trkpt>
        <trkpt lat="29.0149136" lon="104.774928"><ele>272.23</ele><time>2026-06-05T18:15:20.000Z</time></trkpt>
        <trkpt lat="29.0148592" lon="104.7748504"><ele>271.63</ele><time>2026-06-05T18:16:38.000Z</time></trkpt>
        <trkpt lat="29.0149502" lon="104.7748052"><ele>271.65</ele><time>2026-06-05T18:22:18.000Z</time></trkpt>
        <trkpt lat="29.0150558" lon="104.7747574"><ele>272.18</ele><time>2026-06-05T18:22:30.000Z</time></trkpt>
        <trkpt lat="29.0150851" lon="104.7746562"><ele>272.23</ele><time>2026-06-05T18:22:44.000Z</time></trkpt>
        <trkpt lat="29.0150962" lon="104.7745282"><ele>270.99</ele><time>2026-06-05T18:22:56.000Z</time></trkpt>
        <trkpt lat="29.0150797" lon="104.7743935"><ele>269.45</ele><time>2026-06-05T18:23:08.000Z</time></trkpt>
        <trkpt lat="29.0150668" lon="104.7743304"><ele>268.13</ele><time>2026-06-05T18:23:12.000Z</time></trkpt>
        <trkpt lat="29.015047" lon="104.7742428"><ele>267.33</ele><time>2026-06-05T18:23:24.000Z</time></trkpt>
        <trkpt lat="29.0150355" lon="104.7741238"><ele>266.6</ele><time>2026-06-05T18:23:34.000Z</time></trkpt>
        <trkpt lat="29.015041" lon="104.7740692"><ele>265.65</ele><time>2026-06-05T18:23:38.000Z</time></trkpt>
        <trkpt lat="29.0150662" lon="104.7739758"><ele>264.8</ele><time>2026-06-05T18:23:48.000Z</time></trkpt>
        <trkpt lat="29.0150954" lon="104.7738735"><ele>263.81</ele><time>2026-06-05T18:23:58.000Z</time></trkpt>
        <trkpt lat="29.0151095" lon="104.7737674"><ele>263.41</ele><time>2026-06-05T18:24:06.000Z</time></trkpt>
        <trkpt lat="29.0150598" lon="104.7736762"><ele>262.52</ele><time>2026-06-05T18:24:16.000Z</time></trkpt>
        <trkpt lat="29.0149625" lon="104.7736184"><ele>261.88</ele><time>2026-06-05T18:24:26.000Z</time></trkpt>
        <trkpt lat="29.0148624" lon="104.7735814"><ele>261.2</ele><time>2026-06-05T18:24:36.000Z</time></trkpt>
        <trkpt lat="29.0147652" lon="104.7735521"><ele>261.22</ele><time>2026-06-05T18:24:44.000Z</time></trkpt>
        <trkpt lat="29.0146573" lon="104.7735178"><ele>261.27</ele><time>2026-06-05T18:24:52.000Z</time></trkpt>
        <trkpt lat="29.0145629" lon="104.7734771"><ele>262.07</ele><time>2026-06-05T18:25:14.000Z</time></trkpt>
        <trkpt lat="29.0144592" lon="104.773451"><ele>261.62</ele><time>2026-06-05T18:25:22.000Z</time></trkpt>
        <trkpt lat="29.0144397" lon="104.7734294"><ele>261.43</ele><time>2026-06-05T18:25:28.000Z</time></trkpt>
        <trkpt lat="29.0143756" lon="104.7734743"><ele>261.14</ele><time>2026-06-05T18:25:46.000Z</time></trkpt>
        <trkpt lat="29.014287" lon="104.7735332"><ele>260.03</ele><time>2026-06-05T18:25:56.000Z</time></trkpt>
        <trkpt lat="29.0142383" lon="104.7734756"><ele>256.41</ele><time>2026-06-05T18:26:08.000Z</time></trkpt>
        <trkpt lat="29.0142321" lon="104.7733732"><ele>254.11</ele><time>2026-06-05T18:26:24.000Z</time></trkpt>
        <trkpt lat="29.0142014" lon="104.7732544"><ele>252.37</ele><time>2026-06-05T18:27:22.000Z</time></trkpt>
        <trkpt lat="29.0141666" lon="104.7731426"><ele>251.16</ele><time>2026-06-05T18:27:34.000Z</time></trkpt>
        <trkpt lat="29.0140923" lon="104.7730668"><ele>251</ele><time>2026-06-05T18:27:58.000Z</time></trkpt>
        <trkpt lat="29.0140027" lon="104.7730289"><ele>249.53</ele><time>2026-06-05T18:28:08.000Z</time></trkpt>
        <trkpt lat="29.0138903" lon="104.7730003"><ele>248.56</ele><time>2026-06-05T18:28:18.000Z</time></trkpt>
        <trkpt lat="29.0137866" lon="104.7729558"><ele>252.69</ele><time>2026-06-05T18:28:36.000Z</time></trkpt>
        <trkpt lat="29.0136977" lon="104.7729124"><ele>255.42</ele><time>2026-06-05T18:29:00.000Z</time></trkpt>
        <trkpt lat="29.0136072" lon="104.7728846"><ele>254.61</ele><time>2026-06-05T18:29:12.000Z</time></trkpt>
        <trkpt lat="29.0135108" lon="104.7728298"><ele>255.65</ele><time>2026-06-05T18:29:20.000Z</time></trkpt>
        <trkpt lat="29.013422" lon="104.7727752"><ele>255.73</ele><time>2026-06-05T18:29:28.000Z</time></trkpt>
        <trkpt lat="29.0133367" lon="104.7727239"><ele>255.58</ele><time>2026-06-05T18:29:36.000Z</time></trkpt>
        <trkpt lat="29.0132329" lon="104.7726484"><ele>255.38</ele><time>2026-06-05T18:29:46.000Z</time></trkpt>
        <trkpt lat="29.0131195" lon="104.7726043"><ele>255.95</ele><time>2026-06-05T18:29:54.000Z</time></trkpt>
        <trkpt lat="29.0130067" lon="104.7725939"><ele>255.57</ele><time>2026-06-05T18:30:04.000Z</time></trkpt>
        <trkpt lat="29.0129103" lon="104.7725814"><ele>254.2</ele><time>2026-06-05T18:30:34.000Z</time></trkpt>
        <trkpt lat="29.0128084" lon="104.7725293"><ele>253.81</ele><time>2026-06-05T18:30:42.000Z</time></trkpt>
        <trkpt lat="29.0127131" lon="104.7725612"><ele>254.9</ele><time>2026-06-05T18:30:52.000Z</time></trkpt>
        <trkpt lat="29.0126339" lon="104.7725708"><ele>254.36</ele><time>2026-06-05T18:31:10.000Z</time></trkpt>
        <trkpt lat="29.0125473" lon="104.7726046"><ele>254.1</ele><time>2026-06-05T18:31:30.000Z</time></trkpt>
        <trkpt lat="29.0124647" lon="104.7726576"><ele>253.79</ele><time>2026-06-05T18:31:38.000Z</time></trkpt>
        <trkpt lat="29.012347" lon="104.7726711"><ele>254.96</ele><time>2026-06-05T18:31:46.000Z</time></trkpt>
        <trkpt lat="29.0122477" lon="104.772705"><ele>257.09</ele><time>2026-06-05T18:31:56.000Z</time></trkpt>
        <trkpt lat="29.0121475" lon="104.7727109"><ele>259.18</ele><time>2026-06-05T18:32:18.000Z</time></trkpt>
        <trkpt lat="29.012054" lon="104.772688"><ele>261.42</ele><time>2026-06-05T18:32:24.000Z</time></trkpt>
        <trkpt lat="29.0119563" lon="104.7726476"><ele>262.22</ele><time>2026-06-05T18:32:32.000Z</time></trkpt>
        <trkpt lat="29.0118649" lon="104.7726451"><ele>263.32</ele><time>2026-06-05T18:32:40.000Z</time></trkpt>
        <trkpt lat="29.011764" lon="104.7726527"><ele>264.27</ele><time>2026-06-05T18:32:48.000Z</time></trkpt>
        <trkpt lat="29.0116581" lon="104.7726283"><ele>263.72</ele><time>2026-06-05T18:32:56.000Z</time></trkpt>
        <trkpt lat="29.0115443" lon="104.7726109"><ele>262.46</ele><time>2026-06-05T18:33:06.000Z</time></trkpt>
        <trkpt lat="29.0114356" lon="104.77256"><ele>261.23</ele><time>2026-06-05T18:33:16.000Z</time></trkpt>
        <trkpt lat="29.0113537" lon="104.7724877"><ele>259.84</ele><time>2026-06-05T18:33:26.000Z</time></trkpt>
        <trkpt lat="29.0112824" lon="104.7724081"><ele>259.51</ele><time>2026-06-05T18:33:34.000Z</time></trkpt>
        <trkpt lat="29.0112084" lon="104.7723178"><ele>258.71</ele><time>2026-06-05T18:33:42.000Z</time></trkpt>
        <trkpt lat="29.0111438" lon="104.7722311"><ele>258.23</ele><time>2026-06-05T18:33:48.000Z</time></trkpt>
        <trkpt lat="29.0110514" lon="104.772178"><ele>258.65</ele><time>2026-06-05T18:33:56.000Z</time></trkpt>
        <trkpt lat="29.0110276" lon="104.772129"><ele>258.79</ele><time>2026-06-05T18:34:16.000Z</time></trkpt>
        <trkpt lat="29.0110547" lon="104.7720236"><ele>258.47</ele><time>2026-06-05T18:38:00.000Z</time></trkpt>
        <trkpt lat="29.0110663" lon="104.7719191"><ele>256.55</ele><time>2026-06-05T18:39:06.000Z</time></trkpt>
        <trkpt lat="29.0110894" lon="104.7718167"><ele>254.93</ele><time>2026-06-05T18:39:46.000Z</time></trkpt>
        <trkpt lat="29.0110552" lon="104.771707"><ele>253.59</ele><time>2026-06-05T18:41:54.000Z</time></trkpt>
        <trkpt lat="29.0110086" lon="104.7715918"><ele>250.76</ele><time>2026-06-05T18:43:54.000Z</time></trkpt>
        <trkpt lat="29.0109692" lon="104.7714718"><ele>249.63</ele><time>2026-06-05T18:44:40.000Z</time></trkpt>
        <trkpt lat="29.0109364" lon="104.7713658"><ele>248.29</ele><time>2026-06-05T18:45:12.000Z</time></trkpt>
        <trkpt lat="29.0109247" lon="104.7712591"><ele>247.85</ele><time>2026-06-05T18:45:30.000Z</time></trkpt>
        <trkpt lat="29.010944" lon="104.7711583"><ele>246.66</ele><time>2026-06-05T18:46:02.000Z</time></trkpt>
        <trkpt lat="29.0109855" lon="104.7710604"><ele>245.04</ele><time>2026-06-05T18:46:20.000Z</time></trkpt>
        <trkpt lat="29.0110375" lon="104.7709707"><ele>244.13</ele><time>2026-06-05T18:46:36.000Z</time></trkpt>
        <trkpt lat="29.0111056" lon="104.7708906"><ele>243.65</ele><time>2026-06-05T18:46:48.000Z</time></trkpt>
        <trkpt lat="29.0111833" lon="104.7708283"><ele>243.16</ele><time>2026-06-05T18:47:12.000Z</time></trkpt>
        <trkpt lat="29.0112569" lon="104.7707567"><ele>242.53</ele><time>2026-06-05T18:47:24.000Z</time></trkpt>
        <trkpt lat="29.0113377" lon="104.7707061"><ele>242.05</ele><time>2026-06-05T18:47:36.000Z</time></trkpt>
        <trkpt lat="29.0114054" lon="104.7706355"><ele>242.36</ele><time>2026-06-05T18:47:52.000Z</time></trkpt>
        <trkpt lat="29.0114773" lon="104.7705627"><ele>242.54</ele><time>2026-06-05T18:48:08.000Z</time></trkpt>
        <trkpt lat="29.0115315" lon="104.7704671"><ele>243.25</ele><time>2026-06-05T18:48:50.000Z</time></trkpt>
        <trkpt lat="29.0115748" lon="104.7703599"><ele>244.37</ele><time>2026-06-05T18:49:24.000Z</time></trkpt>
        <trkpt lat="29.0115803" lon="104.770252"><ele>245.01</ele><time>2026-06-05T18:49:44.000Z</time></trkpt>
        <trkpt lat="29.0115829" lon="104.7701414"><ele>245.53</ele><time>2026-06-05T18:50:06.000Z</time></trkpt>
        <trkpt lat="29.0115476" lon="104.770039"><ele>246.92</ele><time>2026-06-05T18:50:24.000Z</time></trkpt>
        <trkpt lat="29.0114871" lon="104.7699456"><ele>247.54</ele><time>2026-06-05T18:50:40.000Z</time></trkpt>
        <trkpt lat="29.0114033" lon="104.7698738"><ele>246.38</ele><time>2026-06-05T18:51:10.000Z</time></trkpt>
        <trkpt lat="29.0113279" lon="104.7698022"><ele>246.61</ele><time>2026-06-05T18:52:18.000Z</time></trkpt>
        <trkpt lat="29.0112612" lon="104.7696985"><ele>246.99</ele><time>2026-06-05T18:53:10.000Z</time></trkpt>
        <trkpt lat="29.0111832" lon="104.7696364"><ele>246.62</ele><time>2026-06-05T18:53:20.000Z</time></trkpt>
        <trkpt lat="29.0110975" lon="104.7695847"><ele>246.29</ele><time>2026-06-05T18:53:52.000Z</time></trkpt>
        <trkpt lat="29.011" lon="104.7695439"><ele>246.76</ele><time>2026-06-05T18:55:50.000Z</time></trkpt>
        <trkpt lat="29.0109363" lon="104.7694703"><ele>246.81</ele><time>2026-06-05T18:58:58.000Z</time></trkpt>
        <trkpt lat="29.0108529" lon="104.769426"><ele>246.75</ele><time>2026-06-05T19:00:14.000Z</time></trkpt>
        <trkpt lat="29.0108065" lon="104.7693274"><ele>247.12</ele><time>2026-06-05T19:00:36.000Z</time></trkpt>
        <trkpt lat="29.0107609" lon="104.7692322"><ele>247.87</ele><time>2026-06-05T19:00:46.000Z</time></trkpt>
        <trkpt lat="29.0107191" lon="104.7691392"><ele>248.63</ele><time>2026-06-05T19:00:58.000Z</time></trkpt>
        <trkpt lat="29.0106663" lon="104.7690538"><ele>251.71</ele><time>2026-06-05T19:01:08.000Z</time></trkpt>
        <trkpt lat="29.010618" lon="104.7689569"><ele>253.33</ele><time>2026-06-05T19:01:24.000Z</time></trkpt>
        <trkpt lat="29.0105847" lon="104.7688574"><ele>251.94</ele><time>2026-06-05T19:01:40.000Z</time></trkpt>
        <trkpt lat="29.0105165" lon="104.768799"><ele>251.48</ele><time>2026-06-05T19:02:04.000Z</time></trkpt>
        <trkpt lat="29.0104911" lon="104.7687045"><ele>249.12</ele><time>2026-06-05T19:02:20.000Z</time></trkpt>
        <trkpt lat="29.0104545" lon="104.7686009"><ele>246.63</ele><time>2026-06-05T19:02:36.000Z</time></trkpt>
        <trkpt lat="29.0104479" lon="104.7684946"><ele>246.96</ele><time>2026-06-05T19:02:46.000Z</time></trkpt>
        <trkpt lat="29.0104482" lon="104.7683826"><ele>247.25</ele><time>2026-06-05T19:02:58.000Z</time></trkpt>
        <trkpt lat="29.0104548" lon="104.7682491"><ele>247.56</ele><time>2026-06-05T19:03:10.000Z</time></trkpt>
        <trkpt lat="29.0104403" lon="104.7681241"><ele>247.91</ele><time>2026-06-05T19:03:36.000Z</time></trkpt>
        <trkpt lat="29.0104098" lon="104.768003"><ele>248.26</ele><time>2026-06-05T19:03:58.000Z</time></trkpt>
        <trkpt lat="29.0103964" lon="104.7678818"><ele>247.95</ele><time>2026-06-05T19:04:10.000Z</time></trkpt>
        <trkpt lat="29.010411" lon="104.7677703"><ele>247.74</ele><time>2026-06-05T19:04:20.000Z</time></trkpt>
        <trkpt lat="29.0104567" lon="104.7676615"><ele>247.2</ele><time>2026-06-05T19:04:30.000Z</time></trkpt>
        <trkpt lat="29.0104648" lon="104.7675512"><ele>247.34</ele><time>2026-06-05T19:05:28.000Z</time></trkpt>
        <trkpt lat="29.0104343" lon="104.7674436"><ele>249.59</ele><time>2026-06-05T19:06:18.000Z</time></trkpt>
        <trkpt lat="29.0103592" lon="104.7673807"><ele>250.35</ele><time>2026-06-05T19:06:34.000Z</time></trkpt>
        <trkpt lat="29.010265" lon="104.7673405"><ele>250.13</ele><time>2026-06-05T19:07:00.000Z</time></trkpt>
        <trkpt lat="29.0101687" lon="104.7673038"><ele>250.75</ele><time>2026-06-05T19:07:26.000Z</time></trkpt>
        <trkpt lat="29.010073" lon="104.7672892"><ele>253.05</ele><time>2026-06-05T19:07:36.000Z</time></trkpt>
        <trkpt lat="29.0099764" lon="104.7672511"><ele>255.17</ele><time>2026-06-05T19:08:34.000Z</time></trkpt>
        <trkpt lat="29.0098891" lon="104.767207"><ele>257.92</ele><time>2026-06-05T19:09:10.000Z</time></trkpt>
        <trkpt lat="29.0098113" lon="104.7671442"><ele>261.72</ele><time>2026-06-05T19:09:22.000Z</time></trkpt>
        <trkpt lat="29.0097494" lon="104.7670524"><ele>265.46</ele><time>2026-06-05T19:09:40.000Z</time></trkpt>
        <trkpt lat="29.009708" lon="104.7669432"><ele>270.11</ele><time>2026-06-05T19:09:52.000Z</time></trkpt>
        <trkpt lat="29.0096443" lon="104.7668615"><ele>272.18</ele><time>2026-06-05T19:10:02.000Z</time></trkpt>
        <trkpt lat="29.0095693" lon="104.7667877"><ele>273.75</ele><time>2026-06-05T19:10:16.000Z</time></trkpt>
        <trkpt lat="29.0094929" lon="104.7667229"><ele>276.13</ele><time>2026-06-05T19:10:30.000Z</time></trkpt>
        <trkpt lat="29.0093987" lon="104.7666668"><ele>277.98</ele><time>2026-06-05T19:10:52.000Z</time></trkpt>
        <trkpt lat="29.0093014" lon="104.7666196"><ele>280.28</ele><time>2026-06-05T19:11:04.000Z</time></trkpt>
        <trkpt lat="29.0091995" lon="104.7665643"><ele>283.82</ele><time>2026-06-05T19:11:24.000Z</time></trkpt>
        <trkpt lat="29.0091003" lon="104.7665574"><ele>286.59</ele><time>2026-06-05T19:11:30.000Z</time></trkpt>
        <trkpt lat="29.0089945" lon="104.7665921"><ele>291.38</ele><time>2026-06-05T19:11:40.000Z</time></trkpt>
        <trkpt lat="29.0089165" lon="104.7666634"><ele>293.28</ele><time>2026-06-05T19:11:58.000Z</time></trkpt>
        <trkpt lat="29.0088801" lon="104.7667642"><ele>292.34</ele><time>2026-06-05T19:12:28.000Z</time></trkpt>
        <trkpt lat="29.0088727" lon="104.7668792"><ele>292.59</ele><time>2026-06-05T19:12:38.000Z</time></trkpt>
        <trkpt lat="29.0088541" lon="104.7669994"><ele>292.26</ele><time>2026-06-05T19:12:52.000Z</time></trkpt>
        <trkpt lat="29.0087998" lon="104.7671005"><ele>292.99</ele><time>2026-06-05T19:13:04.000Z</time></trkpt>
        <trkpt lat="29.0087371" lon="104.76719"><ele>294.04</ele><time>2026-06-05T19:14:30.000Z</time></trkpt>
        <trkpt lat="29.0086452" lon="104.7672018"><ele>291.88</ele><time>2026-06-05T19:18:40.000Z</time></trkpt>
        <trkpt lat="29.0085564" lon="104.7672428"><ele>292.13</ele><time>2026-06-05T19:18:56.000Z</time></trkpt>
        <trkpt lat="29.008464" lon="104.7672728"><ele>293.42</ele><time>2026-06-05T19:19:10.000Z</time></trkpt>
        <trkpt lat="29.0083757" lon="104.7673028"><ele>293.68</ele><time>2026-06-05T19:19:18.000Z</time></trkpt>
        <trkpt lat="29.0083005" lon="104.7673644"><ele>295.5</ele><time>2026-06-05T19:19:26.000Z</time></trkpt>
        <trkpt lat="29.0082581" lon="104.767469"><ele>296.57</ele><time>2026-06-05T19:19:38.000Z</time></trkpt>
        <trkpt lat="29.0082584" lon="104.7675893"><ele>297.66</ele><time>2026-06-05T19:19:48.000Z</time></trkpt>
        <trkpt lat="29.0082928" lon="104.7677095"><ele>298.21</ele><time>2026-06-05T19:19:56.000Z</time></trkpt>
        <trkpt lat="29.0083263" lon="104.7678316"><ele>298.63</ele><time>2026-06-05T19:20:06.000Z</time></trkpt>
        <trkpt lat="29.0083531" lon="104.767947"><ele>299.06</ele><time>2026-06-05T19:20:16.000Z</time></trkpt>
        <trkpt lat="29.0083282" lon="104.7680655"><ele>299.5</ele><time>2026-06-05T19:20:26.000Z</time></trkpt>
        <trkpt lat="29.0082943" lon="104.7681851"><ele>300.16</ele><time>2026-06-05T19:20:38.000Z</time></trkpt>
        <trkpt lat="29.0082654" lon="104.7682946"><ele>300.74</ele><time>2026-06-05T19:20:48.000Z</time></trkpt>
        <trkpt lat="29.0082495" lon="104.7684121"><ele>301.17</ele><time>2026-06-05T19:20:58.000Z</time></trkpt>
        <trkpt lat="29.0082759" lon="104.7685175"><ele>301.05</ele><time>2026-06-05T19:21:08.000Z</time></trkpt>
        <trkpt lat="29.008256" lon="104.7686311"><ele>300.67</ele><time>2026-06-05T19:21:54.000Z</time></trkpt>
        <trkpt lat="29.008197" lon="104.7687327"><ele>300.22</ele><time>2026-06-05T19:22:04.000Z</time></trkpt>
        <trkpt lat="29.0081164" lon="104.7688244"><ele>299.26</ele><time>2026-06-05T19:22:14.000Z</time></trkpt>
        <trkpt lat="29.0080394" lon="104.7689046"><ele>297.16</ele><time>2026-06-05T19:22:22.000Z</time></trkpt>
        <trkpt lat="29.0079772" lon="104.7689965"><ele>296</ele><time>2026-06-05T19:22:30.000Z</time></trkpt>
        <trkpt lat="29.0079153" lon="104.7690794"><ele>293.52</ele><time>2026-06-05T19:22:40.000Z</time></trkpt>
        <trkpt lat="29.0078382" lon="104.7691736"><ele>292.09</ele><time>2026-06-05T19:22:50.000Z</time></trkpt>
        <trkpt lat="29.0077735" lon="104.769269"><ele>289.91</ele><time>2026-06-05T19:22:58.000Z</time></trkpt>
        <trkpt lat="29.0077157" lon="104.7693586"><ele>289.43</ele><time>2026-06-05T19:23:08.000Z</time></trkpt>
        <trkpt lat="29.0076744" lon="104.7694582"><ele>289.01</ele><time>2026-06-05T19:23:22.000Z</time></trkpt>
        <trkpt lat="29.007652" lon="104.7695715"><ele>288.74</ele><time>2026-06-05T19:23:39.000Z</time></trkpt>
        <trkpt lat="29.0076419" lon="104.7696871"><ele>288.53</ele><time>2026-06-05T19:23:52.000Z</time></trkpt>
        <trkpt lat="29.0076061" lon="104.7698067"><ele>287.85</ele><time>2026-06-05T19:24:06.000Z</time></trkpt>
        <trkpt lat="29.0075434" lon="104.7699077"><ele>286.31</ele><time>2026-06-05T19:24:16.000Z</time></trkpt>
        <trkpt lat="29.0074811" lon="104.7700036"><ele>283.99</ele><time>2026-06-05T19:24:28.000Z</time></trkpt>
        <trkpt lat="29.0074238" lon="104.7700902"><ele>283.94</ele><time>2026-06-05T19:24:36.000Z</time></trkpt>
        <trkpt lat="29.0073824" lon="104.7701812"><ele>280.68</ele><time>2026-06-05T19:24:44.000Z</time></trkpt>
        <trkpt lat="29.0073718" lon="104.7702871"><ele>276.54</ele><time>2026-06-05T19:24:50.000Z</time></trkpt>
        <trkpt lat="29.007415" lon="104.7703874"><ele>273.76</ele><time>2026-06-05T19:25:00.000Z</time></trkpt>
        <trkpt lat="29.0074866" lon="104.7704718"><ele>273.27</ele><time>2026-06-05T19:25:10.000Z</time></trkpt>
        <trkpt lat="29.0075243" lon="104.7705834"><ele>271.2</ele><time>2026-06-05T19:25:40.000Z</time></trkpt>
        <trkpt lat="29.0075398" lon="104.7707036"><ele>269.33</ele><time>2026-06-05T19:25:55.000Z</time></trkpt>
        <trkpt lat="29.0075768" lon="104.7708083"><ele>268.12</ele><time>2026-06-05T19:26:05.000Z</time></trkpt>
        <trkpt lat="29.0076316" lon="104.7708921"><ele>267.14</ele><time>2026-06-05T19:26:11.000Z</time></trkpt>
        <trkpt lat="29.0077021" lon="104.7709634"><ele>266.65</ele><time>2026-06-05T19:26:19.000Z</time></trkpt>
        <trkpt lat="29.0077761" lon="104.7710283"><ele>264.93</ele><time>2026-06-05T19:26:27.000Z</time></trkpt>
        <trkpt lat="29.0078626" lon="104.7710767"><ele>265.13</ele><time>2026-06-05T19:26:37.000Z</time></trkpt>
        <trkpt lat="29.0079394" lon="104.7711496"><ele>265.28</ele><time>2026-06-05T19:26:47.000Z</time></trkpt>
        <trkpt lat="29.0080184" lon="104.7712582"><ele>264.76</ele><time>2026-06-05T19:26:57.000Z</time></trkpt>
        <trkpt lat="29.0080877" lon="104.7713634"><ele>264.45</ele><time>2026-06-05T19:27:09.000Z</time></trkpt>
        <trkpt lat="29.0081069" lon="104.771484"><ele>262.21</ele><time>2026-06-05T19:27:22.000Z</time></trkpt>
        <trkpt lat="29.0080839" lon="104.7715987"><ele>260.38</ele><time>2026-06-05T19:27:32.000Z</time></trkpt>
        <trkpt lat="29.0080287" lon="104.7716975"><ele>257.79</ele><time>2026-06-05T19:27:42.000Z</time></trkpt>
        <trkpt lat="29.0079593" lon="104.7717783"><ele>256.31</ele><time>2026-06-05T19:27:54.000Z</time></trkpt>
        <trkpt lat="29.0079175" lon="104.7718928"><ele>255.9</ele><time>2026-06-05T19:28:04.000Z</time></trkpt>
        <trkpt lat="29.0079302" lon="104.7720005"><ele>255.95</ele><time>2026-06-05T19:28:32.000Z</time></trkpt>
        <trkpt lat="29.0080078" lon="104.7720511"><ele>256.83</ele><time>2026-06-05T19:28:39.000Z</time></trkpt>
        <trkpt lat="29.0081074" lon="104.7720961"><ele>258.44</ele><time>2026-06-05T19:28:47.000Z</time></trkpt>
        <trkpt lat="29.0082202" lon="104.7721663"><ele>259.23</ele><time>2026-06-05T19:28:55.000Z</time></trkpt>
        <trkpt lat="29.0083177" lon="104.7722328"><ele>262.38</ele><time>2026-06-05T19:29:07.000Z</time></trkpt>
        <trkpt lat="29.0084208" lon="104.772268"><ele>262.76</ele><time>2026-06-05T19:29:17.000Z</time></trkpt>
        <trkpt lat="29.0085385" lon="104.772276"><ele>262.57</ele><time>2026-06-05T19:29:26.000Z</time></trkpt>
        <trkpt lat="29.0086616" lon="104.7722726"><ele>264.17</ele><time>2026-06-05T19:29:52.000Z</time></trkpt>
        <trkpt lat="29.0087742" lon="104.7722815"><ele>264.95</ele><time>2026-06-05T19:30:00.000Z</time></trkpt>
        <trkpt lat="29.0088466" lon="104.7723531"><ele>265.23</ele><time>2026-06-05T19:30:08.000Z</time></trkpt>
        <trkpt lat="29.0088841" lon="104.772463"><ele>263.82</ele><time>2026-06-05T19:30:18.000Z</time></trkpt>
        <trkpt lat="29.0088989" lon="104.7725878"><ele>263.23</ele><time>2026-06-05T19:30:26.000Z</time></trkpt>
        <trkpt lat="29.0088982" lon="104.7726316"><ele>263.39</ele><time>2026-06-05T19:30:28.000Z</time></trkpt>
        <trkpt lat="29.008892" lon="104.7727236"><ele>264.19</ele><time>2026-06-05T19:30:37.000Z</time></trkpt>
        <trkpt lat="29.0088896" lon="104.7728064"><ele>263.96</ele><time>2026-06-05T19:30:52.000Z</time></trkpt>
        <trkpt lat="29.0088798" lon="104.7729113"><ele>262.28</ele><time>2026-06-05T19:31:34.000Z</time></trkpt>
        <trkpt lat="29.0088356" lon="104.7730117"><ele>262.47</ele><time>2026-06-05T19:31:48.000Z</time></trkpt>
        <trkpt lat="29.0087847" lon="104.7731068"><ele>263.64</ele><time>2026-06-05T19:31:58.000Z</time></trkpt>
        <trkpt lat="29.0087162" lon="104.7731866"><ele>264.31</ele><time>2026-06-05T19:32:08.000Z</time></trkpt>
        <trkpt lat="29.0086295" lon="104.77326"><ele>265.37</ele><time>2026-06-05T19:32:24.000Z</time></trkpt>
        <trkpt lat="29.0085352" lon="104.7732971"><ele>267.17</ele><time>2026-06-05T19:32:32.000Z</time></trkpt>
        <trkpt lat="29.008434" lon="104.7733161"><ele>269.18</ele><time>2026-06-05T19:32:42.000Z</time></trkpt>
        <trkpt lat="29.0083357" lon="104.7733208"><ele>270.88</ele><time>2026-06-05T19:32:54.000Z</time></trkpt>
        <trkpt lat="29.0082482" lon="104.7733604"><ele>272.49</ele><time>2026-06-05T19:33:06.000Z</time></trkpt>
        <trkpt lat="29.0082346" lon="104.7734549"><ele>273.78</ele><time>2026-06-05T19:33:18.000Z</time></trkpt>
        <trkpt lat="29.0083006" lon="104.7735372"><ele>271.07</ele><time>2026-06-05T19:33:46.000Z</time></trkpt>
        <trkpt lat="29.0084043" lon="104.773581"><ele>272.98</ele><time>2026-06-05T19:34:02.000Z</time></trkpt>
        <trkpt lat="29.008501" lon="104.7736401"><ele>271.21</ele><time>2026-06-05T19:34:18.000Z</time></trkpt>
        <trkpt lat="29.0085922" lon="104.7736968"><ele>271.13</ele><time>2026-06-05T19:34:34.000Z</time></trkpt>
        <trkpt lat="29.0086701" lon="104.773764"><ele>271.22</ele><time>2026-06-05T19:35:04.000Z</time></trkpt>
        <trkpt lat="29.0086732" lon="104.7738635"><ele>274.22</ele><time>2026-06-05T19:36:03.000Z</time></trkpt>
        <trkpt lat="29.0086424" lon="104.7739755"><ele>277.22</ele><time>2026-06-05T19:36:24.000Z</time></trkpt>
        <trkpt lat="29.0085807" lon="104.7740724"><ele>280.41</ele><time>2026-06-05T19:36:52.000Z</time></trkpt>
        <trkpt lat="29.0084924" lon="104.7741264"><ele>285.05</ele><time>2026-06-05T19:37:00.000Z</time></trkpt>
        <trkpt lat="29.0084069" lon="104.7741851"><ele>287.91</ele><time>2026-06-05T19:37:08.000Z</time></trkpt>
        <trkpt lat="29.0083249" lon="104.7742428"><ele>288.65</ele><time>2026-06-05T19:37:40.000Z</time></trkpt>
        <trkpt lat="29.008241" lon="104.7742897"><ele>289.03</ele><time>2026-06-05T19:37:48.000Z</time></trkpt>
        <trkpt lat="29.0081539" lon="104.7743429"><ele>289.57</ele><time>2026-06-05T19:37:58.000Z</time></trkpt>
        <trkpt lat="29.0080576" lon="104.7743931"><ele>287.77</ele><time>2026-06-05T19:38:08.000Z</time></trkpt>
        <trkpt lat="29.0079532" lon="104.7744391"><ele>286.69</ele><time>2026-06-05T19:38:20.000Z</time></trkpt>
        <trkpt lat="29.0078568" lon="104.7744751"><ele>288.96</ele><time>2026-06-05T19:38:30.000Z</time></trkpt>
        <trkpt lat="29.0077948" lon="104.7745516"><ele>287.11</ele><time>2026-06-05T19:38:58.000Z</time></trkpt>
        <trkpt lat="29.0076992" lon="104.774562"><ele>289.56</ele><time>2026-06-05T19:40:24.000Z</time></trkpt>
        <trkpt lat="29.0076063" lon="104.7746247"><ele>290.78</ele><time>2026-06-05T19:40:36.000Z</time></trkpt>
        <trkpt lat="29.0075436" lon="104.7747032"><ele>291.17</ele><time>2026-06-05T19:40:58.000Z</time></trkpt>
        <trkpt lat="29.007468" lon="104.7747727"><ele>291.35</ele><time>2026-06-05T19:41:12.000Z</time></trkpt>
        <trkpt lat="29.0073741" lon="104.7748407"><ele>291.78</ele><time>2026-06-05T19:41:22.000Z</time></trkpt>
        <trkpt lat="29.007282" lon="104.7748701"><ele>292.48</ele><time>2026-06-05T19:41:32.000Z</time></trkpt>
        <trkpt lat="29.0071909" lon="104.7749198"><ele>292.45</ele><time>2026-06-05T19:41:44.000Z</time></trkpt>
        <trkpt lat="29.0071124" lon="104.7749762"><ele>292</ele><time>2026-06-05T19:41:56.000Z</time></trkpt>
        <trkpt lat="29.007026" lon="104.7750304"><ele>291.27</ele><time>2026-06-05T19:42:14.000Z</time></trkpt>
        <trkpt lat="29.0069405" lon="104.7750873"><ele>289.59</ele><time>2026-06-05T19:42:28.000Z</time></trkpt>
        <trkpt lat="29.0068736" lon="104.7751687"><ele>288.29</ele><time>2026-06-05T19:42:37.000Z</time></trkpt>
        <trkpt lat="29.0068131" lon="104.7752608"><ele>287.81</ele><time>2026-06-05T19:42:45.000Z</time></trkpt>
        <trkpt lat="29.0067609" lon="104.7753675"><ele>282.66</ele><time>2026-06-05T19:42:55.000Z</time></trkpt>
        <trkpt lat="29.0066901" lon="104.7754541"><ele>278.8</ele><time>2026-06-05T19:43:05.000Z</time></trkpt>
        <trkpt lat="29.0066334" lon="104.7755436"><ele>276.39</ele><time>2026-06-05T19:43:19.000Z</time></trkpt>
        <trkpt lat="29.0065967" lon="104.775647"><ele>275.16</ele><time>2026-06-05T19:43:29.000Z</time></trkpt>
        <trkpt lat="29.00656" lon="104.7757463"><ele>275</ele><time>2026-06-05T19:43:37.000Z</time></trkpt>
        <trkpt lat="29.0065647" lon="104.7758579"><ele>275.53</ele><time>2026-06-05T19:43:47.000Z</time></trkpt>
        <trkpt lat="29.0065678" lon="104.7759767"><ele>275.61</ele><time>2026-06-05T19:43:57.000Z</time></trkpt>
        <trkpt lat="29.0065438" lon="104.7760875"><ele>275.34</ele><time>2026-06-05T19:44:07.000Z</time></trkpt>
        <trkpt lat="29.0065318" lon="104.776206"><ele>274.92</ele><time>2026-06-05T19:44:17.000Z</time></trkpt>
        <trkpt lat="29.0065847" lon="104.7762906"><ele>274.13</ele><time>2026-06-05T19:44:31.000Z</time></trkpt>
        <trkpt lat="29.0066153" lon="104.7763854"><ele>274.61</ele><time>2026-06-05T19:44:55.000Z</time></trkpt>
        <trkpt lat="29.0066802" lon="104.7764589"><ele>277.13</ele><time>2026-06-05T19:45:31.000Z</time></trkpt>
        <trkpt lat="29.0067662" lon="104.7765329"><ele>279.95</ele><time>2026-06-05T19:46:06.000Z</time></trkpt>
        <trkpt lat="29.0068609" lon="104.776576"><ele>283.16</ele><time>2026-06-05T19:46:32.000Z</time></trkpt>
        <trkpt lat="29.0069491" lon="104.7766439"><ele>286.04</ele><time>2026-06-05T19:46:58.000Z</time></trkpt>
        <trkpt lat="29.0070377" lon="104.7767059"><ele>290.81</ele><time>2026-06-05T19:47:18.000Z</time></trkpt>
        <trkpt lat="29.0071347" lon="104.7767418"><ele>296.96</ele><time>2026-06-05T19:47:33.000Z</time></trkpt>
        <trkpt lat="29.0072207" lon="104.7767822"><ele>301.31</ele><time>2026-06-05T19:47:48.000Z</time></trkpt>
        <trkpt lat="29.0073028" lon="104.7768308"><ele>304.64</ele><time>2026-06-05T19:48:02.000Z</time></trkpt>
        <trkpt lat="29.0073667" lon="104.7769035"><ele>306.96</ele><time>2026-06-05T19:48:14.000Z</time></trkpt>
        <trkpt lat="29.0074421" lon="104.7769666"><ele>308.8</ele><time>2026-06-05T19:48:30.000Z</time></trkpt>
        <trkpt lat="29.0075299" lon="104.7770072"><ele>310.4</ele><time>2026-06-05T19:48:49.000Z</time></trkpt>
        <trkpt lat="29.0076233" lon="104.7770416"><ele>312.95</ele><time>2026-06-05T19:49:02.000Z</time></trkpt>
        <trkpt lat="29.0077099" lon="104.7770867"><ele>313.54</ele><time>2026-06-05T19:49:12.000Z</time></trkpt>
        <trkpt lat="29.0077806" lon="104.7771673"><ele>315</ele><time>2026-06-05T19:49:24.000Z</time></trkpt>
        <trkpt lat="29.0078471" lon="104.7772636"><ele>315.94</ele><time>2026-06-05T19:50:12.000Z</time></trkpt>
        <trkpt lat="29.0079034" lon="104.7773443"><ele>319.5</ele><time>2026-06-05T19:50:30.000Z</time></trkpt>
        <trkpt lat="29.0079879" lon="104.7773672"><ele>321.88</ele><time>2026-06-05T19:51:06.000Z</time></trkpt>
        <trkpt lat="29.0080436" lon="104.7774342"><ele>323.9</ele><time>2026-06-05T19:51:34.000Z</time></trkpt>
        <trkpt lat="29.0080204" lon="104.777524"><ele>324.83</ele><time>2026-06-05T19:51:52.000Z</time></trkpt>
        <trkpt lat="29.0079837" lon="104.7776269"><ele>325.22</ele><time>2026-06-05T19:52:22.000Z</time></trkpt>
        <trkpt lat="29.0079747" lon="104.7777395"><ele>327.87</ele><time>2026-06-05T19:52:40.000Z</time></trkpt>
        <trkpt lat="29.0079965" lon="104.7778451"><ele>331.74</ele><time>2026-06-05T19:52:54.000Z</time></trkpt>
        <trkpt lat="29.0080175" lon="104.7779584"><ele>335.8</ele><time>2026-06-05T19:53:06.000Z</time></trkpt>
        <trkpt lat="29.0080105" lon="104.7780635"><ele>339.08</ele><time>2026-06-05T19:53:16.000Z</time></trkpt>
        <trkpt lat="29.0079692" lon="104.7781545"><ele>342.14</ele><time>2026-06-05T19:53:27.000Z</time></trkpt>
        <trkpt lat="29.0079141" lon="104.778252"><ele>344.63</ele><time>2026-06-05T19:53:37.000Z</time></trkpt>
        <trkpt lat="29.0079215" lon="104.7783597"><ele>340.33</ele><time>2026-06-05T19:53:49.000Z</time></trkpt>
        <trkpt lat="29.0079354" lon="104.7784649"><ele>343.11</ele><time>2026-06-05T19:53:59.000Z</time></trkpt>
        <trkpt lat="29.0079806" lon="104.77856"><ele>339.5</ele><time>2026-06-05T19:54:11.000Z</time></trkpt>
        <trkpt lat="29.0080446" lon="104.778648"><ele>337.9</ele><time>2026-06-05T19:54:23.000Z</time></trkpt>
        <trkpt lat="29.0081202" lon="104.7787311"><ele>342.44</ele><time>2026-06-05T19:54:35.000Z</time></trkpt>
        <trkpt lat="29.0082078" lon="104.7788027"><ele>344.75</ele><time>2026-06-05T19:54:47.000Z</time></trkpt>
        <trkpt lat="29.0082821" lon="104.7788756"><ele>342.01</ele><time>2026-06-05T19:54:57.000Z</time></trkpt>
        <trkpt lat="29.0083251" lon="104.7789861"><ele>344.83</ele><time>2026-06-05T19:55:12.000Z</time></trkpt>
        <trkpt lat="29.0083568" lon="104.779103"><ele>343.75</ele><time>2026-06-05T19:55:22.000Z</time></trkpt>
        <trkpt lat="29.008395" lon="104.7792215"><ele>342.9</ele><time>2026-06-05T19:55:39.000Z</time></trkpt>
        <trkpt lat="29.0084489" lon="104.7793226"><ele>348.36</ele><time>2026-06-05T19:55:47.000Z</time></trkpt>
        <trkpt lat="29.0085255" lon="104.7793996"><ele>344.95</ele><time>2026-06-05T19:55:55.000Z</time></trkpt>
        <trkpt lat="29.0086015" lon="104.7794711"><ele>343.78</ele><time>2026-06-05T19:56:05.000Z</time></trkpt>
        <trkpt lat="29.0086766" lon="104.7795369"><ele>345.3</ele><time>2026-06-05T19:56:24.000Z</time></trkpt>
        <trkpt lat="29.0087566" lon="104.7795877"><ele>345.13</ele><time>2026-06-05T19:56:35.000Z</time></trkpt>
        <trkpt lat="29.0088422" lon="104.7796245"><ele>343.67</ele><time>2026-06-05T19:56:45.000Z</time></trkpt>
        <trkpt lat="29.0089295" lon="104.7796774"><ele>343.6</ele><time>2026-06-05T19:56:55.000Z</time></trkpt>
        <trkpt lat="29.0090125" lon="104.7797351"><ele>344.22</ele><time>2026-06-05T19:57:05.000Z</time></trkpt>
        <trkpt lat="29.0090999" lon="104.7797987"><ele>344.52</ele><time>2026-06-05T19:57:16.000Z</time></trkpt>
        <trkpt lat="29.009181" lon="104.7798611"><ele>344.88</ele><time>2026-06-05T19:57:26.000Z</time></trkpt>
        <trkpt lat="29.0092323" lon="104.7799538"><ele>345.48</ele><time>2026-06-05T19:57:38.000Z</time></trkpt>
        <trkpt lat="29.0092247" lon="104.7800716"><ele>346.03</ele><time>2026-06-05T19:57:48.000Z</time></trkpt>
        <trkpt lat="29.0092079" lon="104.7801831"><ele>346.32</ele><time>2026-06-05T19:57:58.000Z</time></trkpt>
        <trkpt lat="29.0092032" lon="104.7802919"><ele>346</ele><time>2026-06-05T19:58:10.000Z</time></trkpt>
        <trkpt lat="29.0092423" lon="104.7803909"><ele>346.09</ele><time>2026-06-05T19:58:16.000Z</time></trkpt>
        <trkpt lat="29.0093065" lon="104.7804742"><ele>344.72</ele><time>2026-06-05T19:58:22.000Z</time></trkpt>
        <trkpt lat="29.009347" lon="104.780567"><ele>343.15</ele><time>2026-06-05T19:58:34.000Z</time></trkpt>
        <trkpt lat="29.0093527" lon="104.7806708"><ele>343.11</ele><time>2026-06-05T19:58:42.000Z</time></trkpt>
        <trkpt lat="29.009301" lon="104.7807704"><ele>341.95</ele><time>2026-06-05T19:58:52.000Z</time></trkpt>
        <trkpt lat="29.0092334" lon="104.7808697"><ele>338.33</ele><time>2026-06-05T19:59:05.000Z</time></trkpt>
        <trkpt lat="29.0091521" lon="104.7809396"><ele>338.76</ele><time>2026-06-05T19:59:20.000Z</time></trkpt>
        <trkpt lat="29.0090561" lon="104.7809686"><ele>339.73</ele><time>2026-06-05T19:59:42.000Z</time></trkpt>
        <trkpt lat="29.0089624" lon="104.7809897"><ele>342.35</ele><time>2026-06-05T19:59:54.000Z</time></trkpt>
        <trkpt lat="29.0088713" lon="104.7810086"><ele>344.61</ele><time>2026-06-05T20:00:02.000Z</time></trkpt>
        <trkpt lat="29.0088117" lon="104.7810818"><ele>345.81</ele><time>2026-06-05T20:00:19.000Z</time></trkpt>
        <trkpt lat="29.0087593" lon="104.7811795"><ele>348.53</ele><time>2026-06-05T20:00:31.000Z</time></trkpt>
        <trkpt lat="29.0086974" lon="104.7812707"><ele>349.18</ele><time>2026-06-05T20:00:42.000Z</time></trkpt>
        <trkpt lat="29.0086464" lon="104.7813625"><ele>350.33</ele><time>2026-06-05T20:01:08.000Z</time></trkpt>
        <trkpt lat="29.0085952" lon="104.78145"><ele>352.6</ele><time>2026-06-05T20:01:15.000Z</time></trkpt>
        <trkpt lat="29.0085363" lon="104.7815359"><ele>354.22</ele><time>2026-06-05T20:01:27.000Z</time></trkpt>
        <trkpt lat="29.0084676" lon="104.7816307"><ele>355.9</ele><time>2026-06-05T20:01:59.000Z</time></trkpt>
        <trkpt lat="29.0084151" lon="104.7817257"><ele>357.47</ele><time>2026-06-05T20:02:07.000Z</time></trkpt>
        <trkpt lat="29.0083435" lon="104.7818154"><ele>358.45</ele><time>2026-06-05T20:02:15.000Z</time></trkpt>
        <trkpt lat="29.0082902" lon="104.7819079"><ele>357.85</ele><time>2026-06-05T20:02:23.000Z</time></trkpt>
        <trkpt lat="29.0082379" lon="104.782002"><ele>358.08</ele><time>2026-06-05T20:02:31.000Z</time></trkpt>
        <trkpt lat="29.00817" lon="104.782112"><ele>357.94</ele><time>2026-06-05T20:02:41.000Z</time></trkpt>
        <trkpt lat="29.0081257" lon="104.7822274"><ele>358.13</ele><time>2026-06-05T20:02:51.000Z</time></trkpt>
        <trkpt lat="29.0081218" lon="104.7823523"><ele>358.37</ele><time>2026-06-05T20:03:01.000Z</time></trkpt>
        <trkpt lat="29.0081181" lon="104.7824713"><ele>358.4</ele><time>2026-06-05T20:03:11.000Z</time></trkpt>
        <trkpt lat="29.008094" lon="104.7825815"><ele>358.14</ele><time>2026-06-05T20:03:21.000Z</time></trkpt>
        <trkpt lat="29.008042" lon="104.7826803"><ele>358.18</ele><time>2026-06-05T20:03:35.000Z</time></trkpt>
        <trkpt lat="29.0079598" lon="104.782751"><ele>358.12</ele><time>2026-06-05T20:03:53.000Z</time></trkpt>
        <trkpt lat="29.0078904" lon="104.7828352"><ele>359.39</ele><time>2026-06-05T20:04:02.000Z</time></trkpt>
        <trkpt lat="29.0078514" lon="104.7829427"><ele>359.88</ele><time>2026-06-05T20:04:12.000Z</time></trkpt>
        <trkpt lat="29.0078514" lon="104.7830613"><ele>359.57</ele><time>2026-06-05T20:04:30.000Z</time></trkpt>
        <trkpt lat="29.0078229" lon="104.7831654"><ele>360.65</ele><time>2026-06-05T20:04:42.000Z</time></trkpt>
        <trkpt lat="29.0078207" lon="104.7832687"><ele>360.48</ele><time>2026-06-05T20:04:49.000Z</time></trkpt>
        <trkpt lat="29.0077786" lon="104.7833579"><ele>361.87</ele><time>2026-06-05T20:05:01.000Z</time></trkpt>
        <trkpt lat="29.0077271" lon="104.7834592"><ele>361.68</ele><time>2026-06-05T20:05:11.000Z</time></trkpt>
        <trkpt lat="29.0076863" lon="104.7835679"><ele>362.41</ele><time>2026-06-05T20:05:21.000Z</time></trkpt>
        <trkpt lat="29.0076762" lon="104.7836849"><ele>362.96</ele><time>2026-06-05T20:05:39.000Z</time></trkpt>
        <trkpt lat="29.0076837" lon="104.7838"><ele>362.1</ele><time>2026-06-05T20:05:43.000Z</time></trkpt>
        <trkpt lat="29.0076987" lon="104.7839224"><ele>364.12</ele><time>2026-06-05T20:05:57.000Z</time></trkpt>
        <trkpt lat="29.0077376" lon="104.7840305"><ele>362.72</ele><time>2026-06-05T20:06:03.000Z</time></trkpt>
        <trkpt lat="29.0077793" lon="104.7841441"><ele>361.35</ele><time>2026-06-05T20:06:13.000Z</time></trkpt>
        <trkpt lat="29.0078114" lon="104.784262"><ele>360.36</ele><time>2026-06-05T20:06:22.000Z</time></trkpt>
        <trkpt lat="29.0078288" lon="104.7843724"><ele>359.53</ele><time>2026-06-05T20:06:30.000Z</time></trkpt>
        <trkpt lat="29.0078606" lon="104.7844907"><ele>358.85</ele><time>2026-06-05T20:06:37.000Z</time></trkpt>
        <trkpt lat="29.0078694" lon="104.784613"><ele>359.07</ele><time>2026-06-05T20:06:53.000Z</time></trkpt>
        <trkpt lat="29.007882" lon="104.7847334"><ele>359.62</ele><time>2026-06-05T20:07:03.000Z</time></trkpt>
        <trkpt lat="29.0078998" lon="104.784841"><ele>360.39</ele><time>2026-06-05T20:07:10.000Z</time></trkpt>
        <trkpt lat="29.0078954" lon="104.7849447"><ele>361.4</ele><time>2026-06-05T20:07:18.000Z</time></trkpt>
        <trkpt lat="29.0078734" lon="104.7850479"><ele>362.53</ele><time>2026-06-05T20:07:26.000Z</time></trkpt>
        <trkpt lat="29.0078568" lon="104.7851526"><ele>363.44</ele><time>2026-06-05T20:07:40.000Z</time></trkpt>
        <trkpt lat="29.0078555" lon="104.7852713"><ele>364.54</ele><time>2026-06-05T20:07:52.000Z</time></trkpt>
        <trkpt lat="29.0078845" lon="104.7853737"><ele>364.68</ele><time>2026-06-05T20:08:00.000Z</time></trkpt>
        <trkpt lat="29.0079633" lon="104.7853763"><ele>363.8</ele><time>2026-06-05T20:08:18.000Z</time></trkpt>
        <trkpt lat="29.0080602" lon="104.7853585"><ele>362.04</ele><time>2026-06-05T20:08:36.000Z</time></trkpt>
        <trkpt lat="29.0081574" lon="104.7853603"><ele>359.29</ele><time>2026-06-05T20:08:46.000Z</time></trkpt>
        <trkpt lat="29.0082656" lon="104.7853356"><ele>357.06</ele><time>2026-06-05T20:08:56.000Z</time></trkpt>
        <trkpt lat="29.0083633" lon="104.785334"><ele>355.99</ele><time>2026-06-05T20:09:06.000Z</time></trkpt>
        <trkpt lat="29.0084721" lon="104.7853279"><ele>353.92</ele><time>2026-06-05T20:09:19.000Z</time></trkpt>
        <trkpt lat="29.0085741" lon="104.7853371"><ele>354.9</ele><time>2026-06-05T20:09:31.000Z</time></trkpt>
        <trkpt lat="29.008661" lon="104.7853747"><ele>356.14</ele><time>2026-06-05T20:09:42.000Z</time></trkpt>
        <trkpt lat="29.008732" lon="104.7854467"><ele>357.22</ele><time>2026-06-05T20:10:04.000Z</time></trkpt>
        <trkpt lat="29.0087873" lon="104.7855504"><ele>358.21</ele><time>2026-06-05T20:42:52.000Z</time></trkpt>
        <trkpt lat="29.0087001" lon="104.7855204"><ele>358.2</ele><time>2026-06-05T20:44:00.000Z</time></trkpt>
        <trkpt lat="29.0087001" lon="104.7855204"><ele>358.2</ele><time>2026-06-05T20:59:27.000Z</time></trkpt>
      </trkseg>
      <trkseg>
        <trkpt lat="29.0086148" lon="104.7854744"><ele>357.94</ele><time>2026-06-05T21:26:21.000Z</time></trkpt>
        <trkpt lat="29.0086148" lon="104.7854744"><ele>357.94</ele><time>2026-06-05T21:26:31.000Z</time></trkpt>
        <trkpt lat="29.0085682" lon="104.7855199"><ele>356.9</ele><time>2026-06-05T21:26:45.000Z</time></trkpt>
        <trkpt lat="29.0085017" lon="104.7855883"><ele>357.04</ele><time>2026-06-05T21:27:25.000Z</time></trkpt>
        <trkpt lat="29.0084029" lon="104.785614"><ele>358.47</ele><time>2026-06-05T21:27:53.000Z</time></trkpt>
        <trkpt lat="29.0083051" lon="104.7856149"><ele>361.59</ele><time>2026-06-05T21:28:07.000Z</time></trkpt>
        <trkpt lat="29.0082105" lon="104.7856079"><ele>364.49</ele><time>2026-06-05T21:28:19.000Z</time></trkpt>
        <trkpt lat="29.0081064" lon="104.7856425"><ele>367.05</ele><time>2026-06-05T21:28:35.000Z</time></trkpt>
        <trkpt lat="29.0080101" lon="104.7856971"><ele>368.87</ele><time>2026-06-05T21:28:47.000Z</time></trkpt>
        <trkpt lat="29.007912" lon="104.7857371"><ele>370.24</ele><time>2026-06-05T21:28:55.000Z</time></trkpt>
        <trkpt lat="29.0078236" lon="104.7857867"><ele>370.93</ele><time>2026-06-05T21:29:11.000Z</time></trkpt>
        <trkpt lat="29.0077335" lon="104.7858098"><ele>371.66</ele><time>2026-06-05T21:29:33.000Z</time></trkpt>
        <trkpt lat="29.0076933" lon="104.7857357"><ele>371.85</ele><time>2026-06-05T21:29:51.000Z</time></trkpt>
        <trkpt lat="29.007625" lon="104.7856447"><ele>371.99</ele><time>2026-06-05T21:30:05.000Z</time></trkpt>
        <trkpt lat="29.0075336" lon="104.7855623"><ele>370.73</ele><time>2026-06-05T21:30:17.000Z</time></trkpt>
        <trkpt lat="29.0074383" lon="104.7855267"><ele>369.71</ele><time>2026-06-05T21:30:27.000Z</time></trkpt>
        <trkpt lat="29.0073457" lon="104.7855534"><ele>369.2</ele><time>2026-06-05T21:30:47.000Z</time></trkpt>
        <trkpt lat="29.0072566" lon="104.7856032"><ele>368.28</ele><time>2026-06-05T21:31:01.000Z</time></trkpt>
        <trkpt lat="29.0071599" lon="104.7856279"><ele>367.23</ele><time>2026-06-05T21:31:13.000Z</time></trkpt>
        <trkpt lat="29.0070675" lon="104.7856355"><ele>366.5</ele><time>2026-06-05T21:31:21.000Z</time></trkpt>
        <trkpt lat="29.0069694" lon="104.7856188"><ele>366.01</ele><time>2026-06-05T21:31:33.000Z</time></trkpt>
        <trkpt lat="29.0068723" lon="104.7856058"><ele>365.46</ele><time>2026-06-05T21:31:41.000Z</time></trkpt>
        <trkpt lat="29.0067811" lon="104.7855648"><ele>365.64</ele><time>2026-06-05T21:31:55.000Z</time></trkpt>
        <trkpt lat="29.006688" lon="104.7855239"><ele>365.73</ele><time>2026-06-05T21:32:05.000Z</time></trkpt>
        <trkpt lat="29.0065865" lon="104.7855065"><ele>365.56</ele><time>2026-06-05T21:32:15.000Z</time></trkpt>
        <trkpt lat="29.0064876" lon="104.7854945"><ele>364.92</ele><time>2026-06-05T21:32:23.000Z</time></trkpt>
        <trkpt lat="29.0063901" lon="104.7854779"><ele>363.39</ele><time>2026-06-05T21:32:35.000Z</time></trkpt>
        <trkpt lat="29.0062961" lon="104.7854456"><ele>362.55</ele><time>2026-06-05T21:32:45.000Z</time></trkpt>
        <trkpt lat="29.0061963" lon="104.7854064"><ele>361.58</ele><time>2026-06-05T21:33:01.000Z</time></trkpt>
        <trkpt lat="29.0061077" lon="104.7853505"><ele>361.64</ele><time>2026-06-05T21:33:13.000Z</time></trkpt>
        <trkpt lat="29.0060361" lon="104.7852817"><ele>362.52</ele><time>2026-06-05T21:33:25.000Z</time></trkpt>
        <trkpt lat="29.0059609" lon="104.785207"><ele>364.13</ele><time>2026-06-05T21:33:35.000Z</time></trkpt>
        <trkpt lat="29.0058747" lon="104.78518"><ele>365.93</ele><time>2026-06-05T21:33:45.000Z</time></trkpt>
        <trkpt lat="29.0057714" lon="104.7851723"><ele>366.83</ele><time>2026-06-05T21:33:55.000Z</time></trkpt>
        <trkpt lat="29.005655" lon="104.7851775"><ele>366.41</ele><time>2026-06-05T21:34:13.000Z</time></trkpt>
        <trkpt lat="29.0055498" lon="104.7851915"><ele>367.08</ele><time>2026-06-05T21:34:23.000Z</time></trkpt>
        <trkpt lat="29.0054618" lon="104.7852475"><ele>366.92</ele><time>2026-06-05T21:34:31.000Z</time></trkpt>
        <trkpt lat="29.0053703" lon="104.7852652"><ele>365.94</ele><time>2026-06-05T21:34:45.000Z</time></trkpt>
        <trkpt lat="29.0052731" lon="104.7852815"><ele>365.58</ele><time>2026-06-05T21:34:55.000Z</time></trkpt>
        <trkpt lat="29.005181" lon="104.7852984"><ele>365.76</ele><time>2026-06-05T21:35:03.000Z</time></trkpt>
        <trkpt lat="29.0050801" lon="104.7853382"><ele>365.55</ele><time>2026-06-05T21:35:15.000Z</time></trkpt>
        <trkpt lat="29.0049875" lon="104.7853849"><ele>365.17</ele><time>2026-06-05T21:35:27.000Z</time></trkpt>
        <trkpt lat="29.0048989" lon="104.7854369"><ele>364.57</ele><time>2026-06-05T21:35:37.000Z</time></trkpt>
        <trkpt lat="29.0048112" lon="104.7854734"><ele>364.74</ele><time>2026-06-05T21:35:45.000Z</time></trkpt>
        <trkpt lat="29.0047178" lon="104.7854878"><ele>364.86</ele><time>2026-06-05T21:35:55.000Z</time></trkpt>
        <trkpt lat="29.0046189" lon="104.785456"><ele>364.47</ele><time>2026-06-05T21:36:09.000Z</time></trkpt>
        <trkpt lat="29.0045598" lon="104.7853599"><ele>363.61</ele><time>2026-06-05T21:36:23.000Z</time></trkpt>
        <trkpt lat="29.0045112" lon="104.785253"><ele>363.08</ele><time>2026-06-05T21:36:47.000Z</time></trkpt>
        <trkpt lat="29.004457" lon="104.7851489"><ele>362.85</ele><time>2026-06-05T21:36:57.000Z</time></trkpt>
        <trkpt lat="29.0044089" lon="104.7850442"><ele>362.18</ele><time>2026-06-05T21:37:15.000Z</time></trkpt>
        <trkpt lat="29.0043526" lon="104.7849541"><ele>362.3</ele><time>2026-06-05T21:37:27.000Z</time></trkpt>
        <trkpt lat="29.0042757" lon="104.7848872"><ele>362.59</ele><time>2026-06-05T21:37:37.000Z</time></trkpt>
        <trkpt lat="29.0042455" lon="104.7848657"><ele>362.24</ele><time>2026-06-05T21:37:43.000Z</time></trkpt>
        <trkpt lat="29.0041863" lon="104.7848193"><ele>361.55</ele><time>2026-06-05T21:38:25.000Z</time></trkpt>
        <trkpt lat="29.0041381" lon="104.7847407"><ele>360.69</ele><time>2026-06-05T21:38:37.000Z</time></trkpt>
        <trkpt lat="29.0040608" lon="104.784677"><ele>360.12</ele><time>2026-06-05T21:38:49.000Z</time></trkpt>
        <trkpt lat="29.0039659" lon="104.7846088"><ele>359.64</ele><time>2026-06-05T21:38:59.000Z</time></trkpt>
        <trkpt lat="29.0038681" lon="104.7845513"><ele>359.56</ele><time>2026-06-05T21:39:09.000Z</time></trkpt>
        <trkpt lat="29.0037792" lon="104.784508"><ele>359.32</ele><time>2026-06-05T21:39:23.000Z</time></trkpt>
        <trkpt lat="29.0036973" lon="104.7844589"><ele>359.58</ele><time>2026-06-05T21:39:35.000Z</time></trkpt>
        <trkpt lat="29.0036096" lon="104.7844391"><ele>359.88</ele><time>2026-06-05T21:40:07.000Z</time></trkpt>
        <trkpt lat="29.0035343" lon="104.7843856"><ele>359.74</ele><time>2026-06-05T21:40:31.000Z</time></trkpt>
        <trkpt lat="29.0034528" lon="104.7843237"><ele>359.79</ele><time>2026-06-05T21:40:43.000Z</time></trkpt>
        <trkpt lat="29.0033611" lon="104.7842972"><ele>359.55</ele><time>2026-06-05T21:40:55.000Z</time></trkpt>
        <trkpt lat="29.003281" lon="104.7843417"><ele>359.43</ele><time>2026-06-05T21:41:09.000Z</time></trkpt>
        <trkpt lat="29.003222" lon="104.7844285"><ele>359.15</ele><time>2026-06-05T21:41:21.000Z</time></trkpt>
        <trkpt lat="29.0031622" lon="104.7845149"><ele>358.35</ele><time>2026-06-05T21:41:33.000Z</time></trkpt>
        <trkpt lat="29.0031038" lon="104.7846137"><ele>357.54</ele><time>2026-06-05T21:41:43.000Z</time></trkpt>
        <trkpt lat="29.0030254" lon="104.7846744"><ele>359.46</ele><time>2026-06-05T21:41:53.000Z</time></trkpt>
        <trkpt lat="29.0029296" lon="104.7846974"><ele>358.36</ele><time>2026-06-05T21:42:05.000Z</time></trkpt>
        <trkpt lat="29.0028279" lon="104.7846997"><ele>358</ele><time>2026-06-05T21:42:15.000Z</time></trkpt>
        <trkpt lat="29.0027228" lon="104.78465"><ele>358.75</ele><time>2026-06-05T21:42:29.000Z</time></trkpt>
        <trkpt lat="29.0026244" lon="104.7845801"><ele>358.72</ele><time>2026-06-05T21:42:37.000Z</time></trkpt>
        <trkpt lat="29.0025319" lon="104.7845252"><ele>358.1</ele><time>2026-06-05T21:42:47.000Z</time></trkpt>
        <trkpt lat="29.0024483" lon="104.7844754"><ele>357.16</ele><time>2026-06-05T21:42:55.000Z</time></trkpt>
        <trkpt lat="29.0023721" lon="104.7844144"><ele>355.42</ele><time>2026-06-05T21:43:05.000Z</time></trkpt>
        <trkpt lat="29.0022815" lon="104.784454"><ele>353.2</ele><time>2026-06-05T21:43:17.000Z</time></trkpt>
        <trkpt lat="29.002219" lon="104.7844111"><ele>352.96</ele><time>2026-06-05T21:43:51.000Z</time></trkpt>
        <trkpt lat="29.0021667" lon="104.7843196"><ele>351.86</ele><time>2026-06-05T21:44:01.000Z</time></trkpt>
        <trkpt lat="29.0020833" lon="104.7842655"><ele>350.73</ele><time>2026-06-05T21:44:11.000Z</time></trkpt>
        <trkpt lat="29.0020076" lon="104.7841979"><ele>350.14</ele><time>2026-06-05T21:44:21.000Z</time></trkpt>
        <trkpt lat="29.00201" lon="104.7840906"><ele>349.06</ele><time>2026-06-05T21:45:03.000Z</time></trkpt>
        <trkpt lat="29.0020435" lon="104.7839823"><ele>346.65</ele><time>2026-06-05T21:45:13.000Z</time></trkpt>
        <trkpt lat="29.0020236" lon="104.7838833"><ele>346.39</ele><time>2026-06-05T21:45:27.000Z</time></trkpt>
        <trkpt lat="29.002057" lon="104.783776"><ele>347.18</ele><time>2026-06-05T21:45:39.000Z</time></trkpt>
        <trkpt lat="29.0020684" lon="104.7836657"><ele>347.09</ele><time>2026-06-05T21:45:51.000Z</time></trkpt>
        <trkpt lat="29.0020312" lon="104.783553"><ele>347.03</ele><time>2026-06-05T21:46:03.000Z</time></trkpt>
        <trkpt lat="29.0019591" lon="104.7834804"><ele>346.99</ele><time>2026-06-05T21:46:15.000Z</time></trkpt>
        <trkpt lat="29.0018707" lon="104.7834273"><ele>345.84</ele><time>2026-06-05T21:46:21.000Z</time></trkpt>
        <trkpt lat="29.0017678" lon="104.783386"><ele>345.03</ele><time>2026-06-05T21:46:37.000Z</time></trkpt>
        <trkpt lat="29.0016713" lon="104.7833645"><ele>344.38</ele><time>2026-06-05T21:46:53.000Z</time></trkpt>
        <trkpt lat="29.0016131" lon="104.7832789"><ele>344.34</ele><time>2026-06-05T21:47:15.000Z</time></trkpt>
        <trkpt lat="29.0015416" lon="104.7831882"><ele>346.48</ele><time>2026-06-05T21:47:29.000Z</time></trkpt>
        <trkpt lat="29.0014551" lon="104.7831365"><ele>348.69</ele><time>2026-06-05T21:47:37.000Z</time></trkpt>
        <trkpt lat="29.0013556" lon="104.7831089"><ele>349.62</ele><time>2026-06-05T21:47:49.000Z</time></trkpt>
        <trkpt lat="29.0012599" lon="104.7830837"><ele>349.52</ele><time>2026-06-05T21:48:01.000Z</time></trkpt>
        <trkpt lat="29.0011456" lon="104.783083"><ele>349.67</ele><time>2026-06-05T21:48:13.000Z</time></trkpt>
        <trkpt lat="29.0010437" lon="104.7831054"><ele>350.5</ele><time>2026-06-05T21:48:23.000Z</time></trkpt>
        <trkpt lat="29.0009464" lon="104.7831343"><ele>351.09</ele><time>2026-06-05T21:48:33.000Z</time></trkpt>
        <trkpt lat="29.0008446" lon="104.7831531"><ele>352.08</ele><time>2026-06-05T21:48:45.000Z</time></trkpt>
        <trkpt lat="29.0007262" lon="104.7831904"><ele>352.34</ele><time>2026-06-05T21:49:01.000Z</time></trkpt>
        <trkpt lat="29.000638" lon="104.7832441"><ele>352.73</ele><time>2026-06-05T21:49:13.000Z</time></trkpt>
        <trkpt lat="29.0005636" lon="104.7833122"><ele>353.05</ele><time>2026-06-05T21:49:27.000Z</time></trkpt>
        <trkpt lat="29.0004851" lon="104.7833619"><ele>354.11</ele><time>2026-06-05T21:50:35.000Z</time></trkpt>
        <trkpt lat="29.0003885" lon="104.7834002"><ele>356.03</ele><time>2026-06-05T21:50:57.000Z</time></trkpt>
        <trkpt lat="29.0002986" lon="104.78343"><ele>356.54</ele><time>2026-06-05T21:51:07.000Z</time></trkpt>
        <trkpt lat="29.0001971" lon="104.7834184"><ele>356.63</ele><time>2026-06-05T21:51:19.000Z</time></trkpt>
        <trkpt lat="29.0000973" lon="104.783414"><ele>356.46</ele><time>2026-06-05T21:51:31.000Z</time></trkpt>
        <trkpt lat="29.0000048" lon="104.7834223"><ele>355.8</ele><time>2026-06-05T21:52:21.000Z</time></trkpt>
        <trkpt lat="28.9999101" lon="104.7834173"><ele>353.76</ele><time>2026-06-05T21:52:35.000Z</time></trkpt>
        <trkpt lat="28.9998175" lon="104.7833534"><ele>350.03</ele><time>2026-06-05T21:53:05.000Z</time></trkpt>
        <trkpt lat="28.9997168" lon="104.7833348"><ele>349.9</ele><time>2026-06-05T21:53:17.000Z</time></trkpt>
        <trkpt lat="28.9996256" lon="104.7833081"><ele>349.34</ele><time>2026-06-05T21:53:45.000Z</time></trkpt>
        <trkpt lat="28.9995351" lon="104.7832544"><ele>349.44</ele><time>2026-06-05T21:54:07.000Z</time></trkpt>
        <trkpt lat="28.999465" lon="104.7831821"><ele>350.51</ele><time>2026-06-05T21:54:29.000Z</time></trkpt>
        <trkpt lat="28.9994078" lon="104.7830969"><ele>351.32</ele><time>2026-06-05T21:55:09.000Z</time></trkpt>
        <trkpt lat="28.9993644" lon="104.7829982"><ele>352.61</ele><time>2026-06-05T21:55:39.000Z</time></trkpt>
        <trkpt lat="28.9993445" lon="104.7828872"><ele>353.15</ele><time>2026-06-05T21:55:57.000Z</time></trkpt>
        <trkpt lat="28.9993026" lon="104.782774"><ele>353.61</ele><time>2026-06-05T21:56:31.000Z</time></trkpt>
        <trkpt lat="28.9992687" lon="104.7827197"><ele>353.75</ele><time>2026-06-05T21:56:37.000Z</time></trkpt>
        <trkpt lat="28.9992032" lon="104.7826461"><ele>353.61</ele><time>2026-06-05T21:56:47.000Z</time></trkpt>
        <trkpt lat="28.9991231" lon="104.7825851"><ele>353.12</ele><time>2026-06-05T21:56:53.000Z</time></trkpt>
        <trkpt lat="28.9990406" lon="104.7825338"><ele>352.29</ele><time>2026-06-05T21:57:05.000Z</time></trkpt>
        <trkpt lat="28.998963" lon="104.7824757"><ele>350.42</ele><time>2026-06-05T21:57:15.000Z</time></trkpt>
        <trkpt lat="28.9988795" lon="104.7824278"><ele>342.48</ele><time>2026-06-05T21:57:21.000Z</time></trkpt>
        <trkpt lat="28.998793" lon="104.7823713"><ele>343.4</ele><time>2026-06-05T21:57:33.000Z</time></trkpt>
        <trkpt lat="28.9986997" lon="104.7823573"><ele>338.79</ele><time>2026-06-05T21:57:47.000Z</time></trkpt>
        <trkpt lat="28.9986232" lon="104.7822961"><ele>336.4</ele><time>2026-06-05T21:58:01.000Z</time></trkpt>
        <trkpt lat="28.998536" lon="104.7822485"><ele>334.76</ele><time>2026-06-05T21:58:37.000Z</time></trkpt>
        <trkpt lat="28.9984572" lon="104.782183"><ele>337.38</ele><time>2026-06-05T21:59:09.000Z</time></trkpt>
        <trkpt lat="28.99842" lon="104.7820877"><ele>338.06</ele><time>2026-06-05T21:59:21.000Z</time></trkpt>
        <trkpt lat="28.9984072" lon="104.7819776"><ele>338.6</ele><time>2026-06-05T21:59:33.000Z</time></trkpt>
        <trkpt lat="28.9984228" lon="104.781886"><ele>339.44</ele><time>2026-06-05T21:59:43.000Z</time></trkpt>
        <trkpt lat="28.9984505" lon="104.7817835"><ele>340.22</ele><time>2026-06-05T21:59:53.000Z</time></trkpt>
        <trkpt lat="28.9984517" lon="104.7816611"><ele>340.74</ele><time>2026-06-05T22:00:17.000Z</time></trkpt>
        <trkpt lat="28.998452" lon="104.7815486"><ele>341.11</ele><time>2026-06-05T22:00:41.000Z</time></trkpt>
        <trkpt lat="28.9984509" lon="104.7814374"><ele>342.26</ele><time>2026-06-05T22:00:55.000Z</time></trkpt>
        <trkpt lat="28.9984651" lon="104.7813281"><ele>343.41</ele><time>2026-06-05T22:01:07.000Z</time></trkpt>
        <trkpt lat="28.9984699" lon="104.7812208"><ele>344.38</ele><time>2026-06-05T22:01:19.000Z</time></trkpt>
        <trkpt lat="28.9984881" lon="104.7811123"><ele>345.38</ele><time>2026-06-05T22:01:29.000Z</time></trkpt>
        <trkpt lat="28.998531" lon="104.7810131"><ele>345.84</ele><time>2026-06-05T22:01:41.000Z</time></trkpt>
        <trkpt lat="28.9985857" lon="104.7809243"><ele>346.2</ele><time>2026-06-05T22:01:57.000Z</time></trkpt>
        <trkpt lat="28.9986558" lon="104.7808532"><ele>346.85</ele><time>2026-06-05T22:02:07.000Z</time></trkpt>
        <trkpt lat="28.9987107" lon="104.7807711"><ele>347.89</ele><time>2026-06-05T22:02:15.000Z</time></trkpt>
        <trkpt lat="28.9987691" lon="104.7806804"><ele>349.37</ele><time>2026-06-05T22:02:39.000Z</time></trkpt>
        <trkpt lat="28.9988331" lon="104.7805994"><ele>351.41</ele><time>2026-06-05T22:02:53.000Z</time></trkpt>
        <trkpt lat="28.9989144" lon="104.7805514"><ele>354.23</ele><time>2026-06-05T22:03:07.000Z</time></trkpt>
        <trkpt lat="28.9990013" lon="104.7805162"><ele>355.87</ele><time>2026-06-05T22:03:23.000Z</time></trkpt>
        <trkpt lat="28.9990946" lon="104.7805142"><ele>357.55</ele><time>2026-06-05T22:03:41.000Z</time></trkpt>
        <trkpt lat="28.9991885" lon="104.7805072"><ele>358.51</ele><time>2026-06-05T22:03:57.000Z</time></trkpt>
        <trkpt lat="28.9992879" lon="104.7804994"><ele>359.4</ele><time>2026-06-05T22:04:31.000Z</time></trkpt>
        <trkpt lat="28.9993701" lon="104.7804437"><ele>359.54</ele><time>2026-06-05T22:04:49.000Z</time></trkpt>
        <trkpt lat="28.9994575" lon="104.7804262"><ele>358.72</ele><time>2026-06-05T22:07:11.000Z</time></trkpt>
        <trkpt lat="28.9995004" lon="104.7805264"><ele>356.46</ele><time>2026-06-05T22:07:37.000Z</time></trkpt>
        <trkpt lat="28.9995917" lon="104.78058"><ele>354.92</ele><time>2026-06-05T22:08:23.000Z</time></trkpt>
        <trkpt lat="28.9996919" lon="104.7806304"><ele>351.71</ele><time>2026-06-05T22:08:49.000Z</time></trkpt>
        <trkpt lat="28.9997922" lon="104.7806502"><ele>348.75</ele><time>2026-06-05T22:09:01.000Z</time></trkpt>
        <trkpt lat="28.9998228" lon="104.7806808"><ele>345.85</ele><time>2026-06-05T22:09:07.000Z</time></trkpt>
        <trkpt lat="28.9998625" lon="104.7807566"><ele>344.14</ele><time>2026-06-05T22:09:35.000Z</time></trkpt>
        <trkpt lat="28.99993" lon="104.7808259"><ele>341.17</ele><time>2026-06-05T22:09:57.000Z</time></trkpt>
        <trkpt lat="29.0000038" lon="104.7809177"><ele>337.57</ele><time>2026-06-05T22:14:01.000Z</time></trkpt>
        <trkpt lat="29.0000877" lon="104.7809569"><ele>334.95</ele><time>2026-06-05T22:19:09.000Z</time></trkpt>
        <trkpt lat="29.0001685" lon="104.7810183"><ele>332.51</ele><time>2026-06-05T22:21:01.000Z</time></trkpt>
        <trkpt lat="29.0002525" lon="104.7810583"><ele>331.26</ele><time>2026-06-05T22:22:15.000Z</time></trkpt>
        <trkpt lat="29.0003449" lon="104.7810596"><ele>330.77</ele><time>2026-06-05T22:23:17.000Z</time></trkpt>
        <trkpt lat="29.0004421" lon="104.7810385"><ele>331.17</ele><time>2026-06-05T22:23:31.000Z</time></trkpt>
        <trkpt lat="29.0005321" lon="104.7809914"><ele>329.8</ele><time>2026-06-05T22:23:45.000Z</time></trkpt>
        <trkpt lat="29.0006215" lon="104.7809498"><ele>328.06</ele><time>2026-06-05T22:24:29.000Z</time></trkpt>
        <trkpt lat="29.0007025" lon="104.7808873"><ele>324.63</ele><time>2026-06-05T22:25:21.000Z</time></trkpt>
        <trkpt lat="29.0007509" lon="104.7807849"><ele>323.43</ele><time>2026-06-05T22:26:57.000Z</time></trkpt>
        <trkpt lat="29.0008035" lon="104.7807001"><ele>323.85</ele><time>2026-06-05T22:29:39.000Z</time></trkpt>
        <trkpt lat="29.0008319" lon="104.780601"><ele>323.47</ele><time>2026-06-05T22:30:35.000Z</time></trkpt>
        <trkpt lat="29.0008658" lon="104.7804998"><ele>324.14</ele><time>2026-06-05T22:36:13.000Z</time></trkpt>
        <trkpt lat="29.0009215" lon="104.7804051"><ele>323.93</ele><time>2026-06-05T22:37:27.000Z</time></trkpt>
        <trkpt lat="29.0009123" lon="104.7802952"><ele>322.31</ele><time>2026-06-05T22:38:13.000Z</time></trkpt>
        <trkpt lat="29.0009132" lon="104.7801891"><ele>321.58</ele><time>2026-06-05T22:39:09.000Z</time></trkpt>
        <trkpt lat="29.0009686" lon="104.7800994"><ele>319.68</ele><time>2026-06-05T22:40:15.000Z</time></trkpt>
        <trkpt lat="29.0009688" lon="104.779995"><ele>317.86</ele><time>2026-06-05T22:40:57.000Z</time></trkpt>
        <trkpt lat="29.0009891" lon="104.7798917"><ele>315.12</ele><time>2026-06-05T22:43:47.000Z</time></trkpt>
        <trkpt lat="29.0009917" lon="104.779784"><ele>313.45</ele><time>2026-06-05T22:45:23.000Z</time></trkpt>
        <trkpt lat="29.0009936" lon="104.7796717"><ele>311.19</ele><time>2026-06-05T22:46:01.000Z</time></trkpt>
        <trkpt lat="29.0009414" lon="104.7795735"><ele>309.78</ele><time>2026-06-05T22:46:39.000Z</time></trkpt>
        <trkpt lat="29.000886" lon="104.7794727"><ele>308.44</ele><time>2026-06-05T22:47:15.000Z</time></trkpt>
        <trkpt lat="29.0008625" lon="104.77937"><ele>307.62</ele><time>2026-06-05T22:47:58.000Z</time></trkpt>
        <trkpt lat="29.000807" lon="104.7792891"><ele>305.63</ele><time>2026-06-05T22:48:19.000Z</time></trkpt>
        <trkpt lat="29.000786" lon="104.7791883"><ele>304.53</ele><time>2026-06-05T22:49:01.000Z</time></trkpt>
        <trkpt lat="29.000786" lon="104.7790812"><ele>305.14</ele><time>2026-06-05T22:49:37.000Z</time></trkpt>
        <trkpt lat="29.00077" lon="104.7789778"><ele>306.29</ele><time>2026-06-05T22:49:47.000Z</time></trkpt>
        <trkpt lat="29.0008426" lon="104.7789621"><ele>307.27</ele><time>2026-06-05T22:50:33.000Z</time></trkpt>
        <trkpt lat="29.0009445" lon="104.7789618"><ele>306.38</ele><time>2026-06-05T22:51:05.000Z</time></trkpt>
        <trkpt lat="29.0009899" lon="104.7788743"><ele>305.91</ele><time>2026-06-05T22:53:31.000Z</time></trkpt>
        <trkpt lat="29.0010269" lon="104.7787752"><ele>305.11</ele><time>2026-06-05T22:55:01.000Z</time></trkpt>
        <trkpt lat="29.0011246" lon="104.7787577"><ele>304.61</ele><time>2026-06-05T22:55:47.000Z</time></trkpt>
        <trkpt lat="29.0012222" lon="104.7787293"><ele>301.85</ele><time>2026-06-05T22:57:13.000Z</time></trkpt>
        <trkpt lat="29.0013096" lon="104.7786908"><ele>297.25</ele><time>2026-06-05T22:57:57.000Z</time></trkpt>
        <trkpt lat="29.0013926" lon="104.7787272"><ele>296.06</ele><time>2026-06-05T22:58:25.000Z</time></trkpt>
        <trkpt lat="29.0014799" lon="104.7787551"><ele>295.6</ele><time>2026-06-05T22:58:47.000Z</time></trkpt>
        <trkpt lat="29.0015739" lon="104.7787529"><ele>294.98</ele><time>2026-06-05T22:59:05.000Z</time></trkpt>
        <trkpt lat="29.0016816" lon="104.778733"><ele>293.73</ele><time>2026-06-05T23:00:27.000Z</time></trkpt>
        <trkpt lat="29.0017708" lon="104.7786775"><ele>291.75</ele><time>2026-06-05T23:00:41.000Z</time></trkpt>
        <trkpt lat="29.0017758" lon="104.7785803"><ele>291.89</ele><time>2026-06-05T23:00:59.000Z</time></trkpt>
        <trkpt lat="29.0017109" lon="104.7785082"><ele>292.33</ele><time>2026-06-05T23:01:36.000Z</time></trkpt>
        <trkpt lat="29.0016286" lon="104.7784446"><ele>291.94</ele><time>2026-06-05T23:01:58.000Z</time></trkpt>
        <trkpt lat="29.0015447" lon="104.7783821"><ele>290.78</ele><time>2026-06-05T23:02:16.000Z</time></trkpt>
        <trkpt lat="29.0014476" lon="104.7783548"><ele>289.79</ele><time>2026-06-05T23:02:36.000Z</time></trkpt>
        <trkpt lat="29.001348" lon="104.7783681"><ele>289.1</ele><time>2026-06-05T23:03:02.000Z</time></trkpt>
        <trkpt lat="29.0012467" lon="104.7783996"><ele>289.33</ele><time>2026-06-05T23:03:28.000Z</time></trkpt>
        <trkpt lat="29.0011493" lon="104.7784036"><ele>288.48</ele><time>2026-06-05T23:04:10.000Z</time></trkpt>
        <trkpt lat="29.0010782" lon="104.7783426"><ele>288.74</ele><time>2026-06-05T23:04:34.000Z</time></trkpt>
        <trkpt lat="29.0010356" lon="104.7782323"><ele>288.5</ele><time>2026-06-05T23:07:14.000Z</time></trkpt>
        <trkpt lat="29.0009402" lon="104.7782576"><ele>288.39</ele><time>2026-06-05T23:07:40.000Z</time></trkpt>
        <trkpt lat="29.0008444" lon="104.7781847"><ele>287.71</ele><time>2026-06-05T23:09:06.000Z</time></trkpt>
        <trkpt lat="29.0007959" lon="104.7780819"><ele>287.7</ele><time>2026-06-05T23:09:24.000Z</time></trkpt>
        <trkpt lat="29.0007247" lon="104.7780185"><ele>288.92</ele><time>2026-06-05T23:10:00.000Z</time></trkpt>
        <trkpt lat="29.0006235" lon="104.7779978"><ele>289.99</ele><time>2026-06-05T23:10:08.000Z</time></trkpt>
        <trkpt lat="29.0005263" lon="104.7779826"><ele>291.46</ele><time>2026-06-05T23:10:22.000Z</time></trkpt>
        <trkpt lat="29.0004244" lon="104.7779697"><ele>293.91</ele><time>2026-06-05T23:10:42.000Z</time></trkpt>
        <trkpt lat="29.0003352" lon="104.7779143"><ele>292.75</ele><time>2026-06-05T23:11:02.000Z</time></trkpt>
        <trkpt lat="29.000248" lon="104.7779175"><ele>290.21</ele><time>2026-06-05T23:11:28.000Z</time></trkpt>
        <trkpt lat="29.0001574" lon="104.7779404"><ele>287.7</ele><time>2026-06-05T23:11:44.000Z</time></trkpt>
        <trkpt lat="29.0000721" lon="104.777986"><ele>285.49</ele><time>2026-06-05T23:12:00.000Z</time></trkpt>
        <trkpt lat="28.9999916" lon="104.7780548"><ele>285.19</ele><time>2026-06-05T23:12:36.000Z</time></trkpt>
        <trkpt lat="28.9999101" lon="104.7781425"><ele>287.44</ele><time>2026-06-05T23:13:52.000Z</time></trkpt>
        <trkpt lat="28.999802" lon="104.7781482"><ele>289.89</ele><time>2026-06-05T23:14:28.000Z</time></trkpt>
        <trkpt lat="28.9997103" lon="104.7781249"><ele>293.99</ele><time>2026-06-05T23:14:56.000Z</time></trkpt>
        <trkpt lat="28.9996238" lon="104.7780942"><ele>296.27</ele><time>2026-06-05T23:15:24.000Z</time></trkpt>
        <trkpt lat="28.9995336" lon="104.7780586"><ele>296.44</ele><time>2026-06-05T23:16:36.000Z</time></trkpt>
        <trkpt lat="28.9994453" lon="104.7780274"><ele>295.37</ele><time>2026-06-05T23:17:40.000Z</time></trkpt>
        <trkpt lat="28.9993741" lon="104.7780918"><ele>291.33</ele><time>2026-06-05T23:18:24.000Z</time></trkpt>
        <trkpt lat="28.9992862" lon="104.7781205"><ele>287.33</ele><time>2026-06-05T23:18:48.000Z</time></trkpt>
        <trkpt lat="28.9991887" lon="104.7780804"><ele>285.59</ele><time>2026-06-05T23:20:34.000Z</time></trkpt>
        <trkpt lat="28.9990991" lon="104.7780899"><ele>287.29</ele><time>2026-06-05T23:21:24.000Z</time></trkpt>
        <trkpt lat="28.9990007" lon="104.7780775"><ele>291.51</ele><time>2026-06-05T23:22:32.000Z</time></trkpt>
        <trkpt lat="28.9989127" lon="104.7781046"><ele>293.05</ele><time>2026-06-05T23:23:34.000Z</time></trkpt>
        <trkpt lat="28.9989341" lon="104.7782055"><ele>297.87</ele><time>2026-06-05T23:28:18.000Z</time></trkpt>
        <trkpt lat="28.998989" lon="104.7780933"><ele>304.73</ele><time>2026-06-05T23:28:28.000Z</time></trkpt>
        <trkpt lat="28.9990693" lon="104.7780249"><ele>308.32</ele><time>2026-06-05T23:28:48.000Z</time></trkpt>
        <trkpt lat="28.999159" lon="104.7779726"><ele>308.08</ele><time>2026-06-05T23:29:14.000Z</time></trkpt>
        <trkpt lat="28.9992552" lon="104.7779365"><ele>309.03</ele><time>2026-06-05T23:29:34.000Z</time></trkpt>
        <trkpt lat="28.9993517" lon="104.7779352"><ele>308.62</ele><time>2026-06-05T23:30:02.000Z</time></trkpt>
        <trkpt lat="28.9994442" lon="104.7779498"><ele>309.59</ele><time>2026-06-05T23:30:34.000Z</time></trkpt>
        <trkpt lat="28.9995347" lon="104.777951"><ele>309.75</ele><time>2026-06-05T23:30:44.000Z</time></trkpt>
        <trkpt lat="28.9995905" lon="104.7779665"><ele>309.9</ele><time>2026-06-05T23:30:50.000Z</time></trkpt>
        <trkpt lat="28.9996622" lon="104.7779321"><ele>310.86</ele><time>2026-06-05T23:31:04.000Z</time></trkpt>
        <trkpt lat="28.9997431" lon="104.7779811"><ele>312.9</ele><time>2026-06-05T23:31:18.000Z</time></trkpt>
        <trkpt lat="28.9998197" lon="104.7780107"><ele>315.59</ele><time>2026-06-05T23:31:26.000Z</time></trkpt>
        <trkpt lat="28.9998802" lon="104.7779565"><ele>317.78</ele><time>2026-06-05T23:31:36.000Z</time></trkpt>
        <trkpt lat="28.9999804" lon="104.7779196"><ele>318.03</ele><time>2026-06-05T23:31:48.000Z</time></trkpt>
        <trkpt lat="29.0000754" lon="104.7778501"><ele>317.71</ele><time>2026-06-05T23:31:56.000Z</time></trkpt>
        <trkpt lat="29.0001948" lon="104.7778246"><ele>318.2</ele><time>2026-06-05T23:32:30.000Z</time></trkpt>
        <trkpt lat="29.0003092" lon="104.7778383"><ele>316.65</ele><time>2026-06-05T23:32:38.000Z</time></trkpt>
        <trkpt lat="29.0004168" lon="104.7778809"><ele>315.43</ele><time>2026-06-05T23:32:48.000Z</time></trkpt>
        <trkpt lat="29.0005066" lon="104.7779306"><ele>314.62</ele><time>2026-06-05T23:32:56.000Z</time></trkpt>
        <trkpt lat="29.0005921" lon="104.7779708"><ele>313.58</ele><time>2026-06-05T23:33:08.000Z</time></trkpt>
        <trkpt lat="29.000677" lon="104.7780189"><ele>313.28</ele><time>2026-06-05T23:33:14.000Z</time></trkpt>
        <trkpt lat="29.000746" lon="104.7780971"><ele>315.01</ele><time>2026-06-05T23:33:32.000Z</time></trkpt>
        <trkpt lat="29.0008201" lon="104.7781829"><ele>314.51</ele><time>2026-06-05T23:33:46.000Z</time></trkpt>
        <trkpt lat="29.0008728" lon="104.7782908"><ele>311.89</ele><time>2026-06-05T23:34:40.000Z</time></trkpt>
        <trkpt lat="29.0009361" lon="104.7783766"><ele>308.39</ele><time>2026-06-05T23:35:04.000Z</time></trkpt>
        <trkpt lat="29.0010072" lon="104.7784491"><ele>309.35</ele><time>2026-06-05T23:35:12.000Z</time></trkpt>
        <trkpt lat="29.0010936" lon="104.7784818"><ele>307.74</ele><time>2026-06-05T23:35:26.000Z</time></trkpt>
        <trkpt lat="29.0011891" lon="104.77846"><ele>305.43</ele><time>2026-06-05T23:35:32.000Z</time></trkpt>
        <trkpt lat="29.0012482" lon="104.7783731"><ele>302.5</ele><time>2026-06-05T23:35:44.000Z</time></trkpt>
        <trkpt lat="29.0013334" lon="104.7783345"><ele>299.66</ele><time>2026-06-05T23:36:00.000Z</time></trkpt>
        <trkpt lat="29.0014305" lon="104.7783334"><ele>298.49</ele><time>2026-06-05T23:36:32.000Z</time></trkpt>
        <trkpt lat="29.0014667" lon="104.7783437"><ele>297.14</ele><time>2026-06-05T23:36:34.000Z</time></trkpt>
        <trkpt lat="29.0015296" lon="104.7783977"><ele>296.44</ele><time>2026-06-05T23:36:46.000Z</time></trkpt>
        <trkpt lat="29.0016166" lon="104.7784404"><ele>294.71</ele><time>2026-06-05T23:37:04.000Z</time></trkpt>
        <trkpt lat="29.0016968" lon="104.7785019"><ele>293.6</ele><time>2026-06-05T23:37:26.000Z</time></trkpt>
        <trkpt lat="29.0017933" lon="104.7785489"><ele>292.06</ele><time>2026-06-05T23:37:36.000Z</time></trkpt>
        <trkpt lat="29.0018195" lon="104.7786039"><ele>290.29</ele><time>2026-06-05T23:37:46.000Z</time></trkpt>
        <trkpt lat="29.0017976" lon="104.7786927"><ele>288.87</ele><time>2026-06-05T23:38:06.000Z</time></trkpt>
        <trkpt lat="29.0017991" lon="104.7788045"><ele>286.37</ele><time>2026-06-05T23:38:16.000Z</time></trkpt>
        <trkpt lat="29.0018613" lon="104.778886"><ele>284.29</ele><time>2026-06-05T23:38:26.000Z</time></trkpt>
        <trkpt lat="29.0019417" lon="104.778975"><ele>283.42</ele><time>2026-06-05T23:38:36.000Z</time></trkpt>
        <trkpt lat="29.0020163" lon="104.7790619"><ele>282.93</ele><time>2026-06-05T23:38:46.000Z</time></trkpt>
        <trkpt lat="29.0020962" lon="104.7791207"><ele>283</ele><time>2026-06-05T23:38:58.000Z</time></trkpt>
        <trkpt lat="29.0021941" lon="104.779167"><ele>282.75</ele><time>2026-06-05T23:39:14.000Z</time></trkpt>
        <trkpt lat="29.0023011" lon="104.7791634"><ele>282.8</ele><time>2026-06-05T23:39:26.000Z</time></trkpt>
        <trkpt lat="29.0023948" lon="104.7791989"><ele>283.02</ele><time>2026-06-05T23:39:40.000Z</time></trkpt>
        <trkpt lat="29.0024945" lon="104.7792559"><ele>286.33</ele><time>2026-06-05T23:40:02.000Z</time></trkpt>
        <trkpt lat="29.0025938" lon="104.7792798"><ele>288.43</ele><time>2026-06-05T23:40:18.000Z</time></trkpt>
        <trkpt lat="29.0026963" lon="104.7792904"><ele>287.73</ele><time>2026-06-05T23:40:30.000Z</time></trkpt>
        <trkpt lat="29.0027866" lon="104.7793164"><ele>287.18</ele><time>2026-06-05T23:40:42.000Z</time></trkpt>
        <trkpt lat="29.0028727" lon="104.7793733"><ele>287.31</ele><time>2026-06-05T23:41:06.000Z</time></trkpt>
        <trkpt lat="29.0029134" lon="104.7794766"><ele>286.95</ele><time>2026-06-05T23:41:18.000Z</time></trkpt>
        <trkpt lat="29.0029846" lon="104.7795553"><ele>286.96</ele><time>2026-06-05T23:41:30.000Z</time></trkpt>
        <trkpt lat="29.0030792" lon="104.7795908"><ele>286.83</ele><time>2026-06-05T23:41:44.000Z</time></trkpt>
        <trkpt lat="29.0031692" lon="104.7796313"><ele>287.08</ele><time>2026-06-05T23:41:56.000Z</time></trkpt>
        <trkpt lat="29.0032511" lon="104.7797064"><ele>287.37</ele><time>2026-06-05T23:42:08.000Z</time></trkpt>
        <trkpt lat="29.0033095" lon="104.7798076"><ele>290.38</ele><time>2026-06-05T23:42:20.000Z</time></trkpt>
        <trkpt lat="29.0033686" lon="104.7798988"><ele>290.2</ele><time>2026-06-05T23:42:30.000Z</time></trkpt>
        <trkpt lat="29.0034001" lon="104.7800041"><ele>289.49</ele><time>2026-06-05T23:42:42.000Z</time></trkpt>
        <trkpt lat="29.0033932" lon="104.7801168"><ele>288.98</ele><time>2026-06-05T23:42:52.000Z</time></trkpt>
        <trkpt lat="29.003402" lon="104.7802221"><ele>287.95</ele><time>2026-06-05T23:43:03.000Z</time></trkpt>
        <trkpt lat="29.0034166" lon="104.7803334"><ele>286.75</ele><time>2026-06-05T23:43:15.000Z</time></trkpt>
        <trkpt lat="29.0034395" lon="104.7804466"><ele>285.86</ele><time>2026-06-05T23:43:23.000Z</time></trkpt>
        <trkpt lat="29.0034546" lon="104.7805542"><ele>284.46</ele><time>2026-06-05T23:43:33.000Z</time></trkpt>
        <trkpt lat="29.0034925" lon="104.7806503"><ele>283.65</ele><time>2026-06-05T23:43:55.000Z</time></trkpt>
        <trkpt lat="29.0035722" lon="104.7806803"><ele>282.77</ele><time>2026-06-05T23:44:09.000Z</time></trkpt>
        <trkpt lat="29.003674" lon="104.7806978"><ele>283.51</ele><time>2026-06-05T23:44:27.000Z</time></trkpt>
        <trkpt lat="29.0037582" lon="104.7807593"><ele>284.92</ele><time>2026-06-05T23:44:39.000Z</time></trkpt>
        <trkpt lat="29.0038697" lon="104.7807811"><ele>283.24</ele><time>2026-06-05T23:44:57.000Z</time></trkpt>
        <trkpt lat="29.0039817" lon="104.780783"><ele>283.04</ele><time>2026-06-05T23:45:17.000Z</time></trkpt>
        <trkpt lat="29.0040381" lon="104.7807927"><ele>286.59</ele><time>2026-06-05T23:45:21.000Z</time></trkpt>
        <trkpt lat="29.0041215" lon="104.7807834"><ele>288.72</ele><time>2026-06-05T23:45:43.000Z</time></trkpt>
        <trkpt lat="29.0042016" lon="104.7807553"><ele>290.38</ele><time>2026-06-05T23:45:55.000Z</time></trkpt>
        <trkpt lat="29.0042962" lon="104.780718"><ele>291.24</ele><time>2026-06-05T23:46:07.000Z</time></trkpt>
        <trkpt lat="29.0043946" lon="104.7806756"><ele>293.74</ele><time>2026-06-05T23:46:17.000Z</time></trkpt>
        <trkpt lat="29.0044907" lon="104.780621"><ele>297.19</ele><time>2026-06-05T23:46:27.000Z</time></trkpt>
        <trkpt lat="29.004577" lon="104.7805676"><ele>300.32</ele><time>2026-06-05T23:46:37.000Z</time></trkpt>
        <trkpt lat="29.0046737" lon="104.7805266"><ele>303.04</ele><time>2026-06-05T23:46:47.000Z</time></trkpt>
        <trkpt lat="29.004783" lon="104.7805245"><ele>304.94</ele><time>2026-06-05T23:46:55.000Z</time></trkpt>
        <trkpt lat="29.0048655" lon="104.7804813"><ele>303.4</ele><time>2026-06-05T23:47:03.000Z</time></trkpt>
        <trkpt lat="29.004947" lon="104.7804407"><ele>303.64</ele><time>2026-06-05T23:47:13.000Z</time></trkpt>
        <trkpt lat="29.0050352" lon="104.7804451"><ele>304.11</ele><time>2026-06-05T23:47:21.000Z</time></trkpt>
        <trkpt lat="29.0051246" lon="104.7804794"><ele>305.4</ele><time>2026-06-05T23:47:33.000Z</time></trkpt>
        <trkpt lat="29.0052225" lon="104.7804941"><ele>305.96</ele><time>2026-06-05T23:47:46.000Z</time></trkpt>
        <trkpt lat="29.0053251" lon="104.7804865"><ele>306.44</ele><time>2026-06-05T23:47:58.000Z</time></trkpt>
        <trkpt lat="29.0054205" lon="104.7805123"><ele>306.41</ele><time>2026-06-05T23:48:07.000Z</time></trkpt>
        <trkpt lat="29.0054949" lon="104.7805983"><ele>306.65</ele><time>2026-06-05T23:48:19.000Z</time></trkpt>
        <trkpt lat="29.0055245" lon="104.7807099"><ele>307.14</ele><time>2026-06-05T23:48:31.000Z</time></trkpt>
        <trkpt lat="29.0054816" lon="104.7808114"><ele>307.62</ele><time>2026-06-05T23:48:45.000Z</time></trkpt>
        <trkpt lat="29.0054049" lon="104.7809004"><ele>308.03</ele><time>2026-06-05T23:48:57.000Z</time></trkpt>
        <trkpt lat="29.0053428" lon="104.7810015"><ele>308.11</ele><time>2026-06-05T23:49:05.000Z</time></trkpt>
        <trkpt lat="29.0053141" lon="104.7811092"><ele>311.76</ele><time>2026-06-05T23:49:17.000Z</time></trkpt>
        <trkpt lat="29.0053681" lon="104.7811794"><ele>310.42</ele><time>2026-06-05T23:49:27.000Z</time></trkpt>
        <trkpt lat="29.0054342" lon="104.78127"><ele>309.97</ele><time>2026-06-05T23:49:39.000Z</time></trkpt>
        <trkpt lat="29.0054449" lon="104.7813864"><ele>310.69</ele><time>2026-06-05T23:49:50.000Z</time></trkpt>
        <trkpt lat="29.0054315" lon="104.7815085"><ele>311.25</ele><time>2026-06-05T23:50:02.000Z</time></trkpt>
        <trkpt lat="29.0054463" lon="104.7816144"><ele>313.93</ele><time>2026-06-05T23:50:10.000Z</time></trkpt>
        <trkpt lat="29.0054581" lon="104.7817403"><ele>313.4</ele><time>2026-06-05T23:50:22.000Z</time></trkpt>
        <trkpt lat="29.0054238" lon="104.7818463"><ele>313.02</ele><time>2026-06-05T23:50:32.000Z</time></trkpt>
        <trkpt lat="29.0053531" lon="104.7819183"><ele>313.21</ele><time>2026-06-05T23:50:42.000Z</time></trkpt>
        <trkpt lat="29.0052562" lon="104.7819477"><ele>313.26</ele><time>2026-06-05T23:50:54.000Z</time></trkpt>
        <trkpt lat="29.0052018" lon="104.7820238"><ele>313.3</ele><time>2026-06-05T23:51:00.000Z</time></trkpt>
        <trkpt lat="29.0051577" lon="104.7821458"><ele>313.69</ele><time>2026-06-05T23:51:14.000Z</time></trkpt>
        <trkpt lat="29.005103" lon="104.7822477"><ele>314.81</ele><time>2026-06-05T23:51:26.000Z</time></trkpt>
        <trkpt lat="29.0050464" lon="104.7823492"><ele>315.63</ele><time>2026-06-05T23:51:40.000Z</time></trkpt>
        <trkpt lat="29.0049761" lon="104.7824386"><ele>316.3</ele><time>2026-06-05T23:51:50.000Z</time></trkpt>
        <trkpt lat="29.0048857" lon="104.7824933"><ele>317.03</ele><time>2026-06-05T23:52:02.000Z</time></trkpt>
        <trkpt lat="29.0047943" lon="104.7825467"><ele>317.6</ele><time>2026-06-05T23:52:12.000Z</time></trkpt>
        <trkpt lat="29.0047021" lon="104.7825265"><ele>317.65</ele><time>2026-06-05T23:52:22.000Z</time></trkpt>
        <trkpt lat="29.0046102" lon="104.7824954"><ele>317.63</ele><time>2026-06-05T23:52:37.000Z</time></trkpt>
        <trkpt lat="29.0045129" lon="104.7824925"><ele>317.93</ele><time>2026-06-05T23:52:55.000Z</time></trkpt>
        <trkpt lat="29.004429" lon="104.7825431"><ele>320.46</ele><time>2026-06-05T23:53:15.000Z</time></trkpt>
        <trkpt lat="29.0043498" lon="104.782606"><ele>322.19</ele><time>2026-06-05T23:54:41.000Z</time></trkpt>
        <trkpt lat="29.0043701" lon="104.7826293"><ele>323.8</ele><time>2026-06-05T23:54:47.000Z</time></trkpt>
        <trkpt lat="29.0044419" lon="104.7826852"><ele>324.64</ele><time>2026-06-05T23:55:05.000Z</time></trkpt>
        <trkpt lat="29.004545" lon="104.7827494"><ele>325.23</ele><time>2026-06-05T23:55:15.000Z</time></trkpt>
        <trkpt lat="29.0046812" lon="104.782871"><ele>326.02</ele><time>2026-06-05T23:55:21.000Z</time></trkpt>
        <trkpt lat="29.0047852" lon="104.7829434"><ele>327.9</ele><time>2026-06-05T23:55:29.000Z</time></trkpt>
        <trkpt lat="29.0046631" lon="104.7828949"><ele>330.09</ele><time>2026-06-05T23:56:55.000Z</time></trkpt>
        <trkpt lat="29.0044395" lon="104.7828492"><ele>328.06</ele><time>2026-06-05T23:57:01.000Z</time></trkpt>
        <trkpt lat="29.0043296" lon="104.7828265"><ele>324.6</ele><time>2026-06-05T23:57:29.000Z</time></trkpt>
        <trkpt lat="29.0043093" lon="104.7829061"><ele>322.12</ele><time>2026-06-05T23:57:38.000Z</time></trkpt>
        <trkpt lat="29.0043236" lon="104.7830213"><ele>320.16</ele><time>2026-06-05T23:57:47.000Z</time></trkpt>
        <trkpt lat="29.0043343" lon="104.7831506"><ele>318.07</ele><time>2026-06-05T23:57:57.000Z</time></trkpt>
        <trkpt lat="29.0043173" lon="104.7832677"><ele>315.9</ele><time>2026-06-05T23:58:05.000Z</time></trkpt>
        <trkpt lat="29.0043097" lon="104.7833078"><ele>313.7</ele><time>2026-06-05T23:58:07.000Z</time></trkpt>
        <trkpt lat="29.0042944" lon="104.7833971"><ele>312.35</ele><time>2026-06-05T23:58:27.000Z</time></trkpt>
        <trkpt lat="29.0042588" lon="104.7835035"><ele>311.61</ele><time>2026-06-05T23:58:35.000Z</time></trkpt>
        <trkpt lat="29.0042687" lon="104.7836188"><ele>311.7</ele><time>2026-06-05T23:58:47.000Z</time></trkpt>
        <trkpt lat="29.0042861" lon="104.7837279"><ele>312.29</ele><time>2026-06-05T23:59:03.000Z</time></trkpt>
        <trkpt lat="29.0043175" lon="104.7838407"><ele>313.28</ele><time>2026-06-05T23:59:19.000Z</time></trkpt>
        <trkpt lat="29.004339" lon="104.7839499"><ele>314.81</ele><time>2026-06-05T23:59:27.000Z</time></trkpt>
        <trkpt lat="29.004387" lon="104.7840393"><ele>318.2</ele><time>2026-06-05T23:59:35.000Z</time></trkpt>
        <trkpt lat="29.0044072" lon="104.7840847"><ele>320.71</ele><time>2026-06-05T23:59:40.000Z</time></trkpt>
        <trkpt lat="29.0043927" lon="104.7841657"><ele>322.38</ele><time>2026-06-06T00:00:00.000Z</time></trkpt>
        <trkpt lat="29.0044061" lon="104.7842649"><ele>324.61</ele><time>2026-06-06T00:00:12.000Z</time></trkpt>
        <trkpt lat="29.0044949" lon="104.7842275"><ele>326.49</ele><time>2026-06-06T00:01:26.000Z</time></trkpt>
        <trkpt lat="29.004576" lon="104.7841724"><ele>329.16</ele><time>2026-06-06T00:01:51.000Z</time></trkpt>
        <trkpt lat="29.0046061" lon="104.7841441"><ele>330.99</ele><time>2026-06-06T00:01:57.000Z</time></trkpt>
        <trkpt lat="29.0046833" lon="104.784092"><ele>332.05</ele><time>2026-06-06T00:02:42.000Z</time></trkpt>
        <trkpt lat="29.0047683" lon="104.7840439"><ele>333.28</ele><time>2026-06-06T00:02:48.000Z</time></trkpt>
        <trkpt lat="29.0048716" lon="104.7839919"><ele>333.57</ele><time>2026-06-06T00:02:54.000Z</time></trkpt>
        <trkpt lat="29.0049598" lon="104.7839157"><ele>333.81</ele><time>2026-06-06T00:03:02.000Z</time></trkpt>
        <trkpt lat="29.0050618" lon="104.7838978"><ele>334.03</ele><time>2026-06-06T00:03:14.000Z</time></trkpt>
        <trkpt lat="29.0051488" lon="104.7839548"><ele>335.12</ele><time>2026-06-06T00:03:26.000Z</time></trkpt>
        <trkpt lat="29.0052164" lon="104.7840375"><ele>335.77</ele><time>2026-06-06T00:03:38.000Z</time></trkpt>
        <trkpt lat="29.0053039" lon="104.7841112"><ele>336.45</ele><time>2026-06-06T00:03:48.000Z</time></trkpt>
        <trkpt lat="29.0053919" lon="104.7841592"><ele>337.75</ele><time>2026-06-06T00:03:56.000Z</time></trkpt>
        <trkpt lat="29.0054605" lon="104.7842293"><ele>337.84</ele><time>2026-06-06T00:04:12.000Z</time></trkpt>
        <trkpt lat="29.0055247" lon="104.7843047"><ele>339.65</ele><time>2026-06-06T00:04:18.000Z</time></trkpt>
        <trkpt lat="29.0056006" lon="104.7843629"><ele>341</ele><time>2026-06-06T00:04:28.000Z</time></trkpt>
        <trkpt lat="29.0056966" lon="104.7843894"><ele>342.57</ele><time>2026-06-06T00:04:40.000Z</time></trkpt>
        <trkpt lat="29.0058069" lon="104.784388"><ele>341.78</ele><time>2026-06-06T00:04:50.000Z</time></trkpt>
        <trkpt lat="29.0058949" lon="104.7843283"><ele>342.07</ele><time>2026-06-06T00:05:00.000Z</time></trkpt>
        <trkpt lat="29.0059796" lon="104.7843442"><ele>346.12</ele><time>2026-06-06T00:05:06.000Z</time></trkpt>
        <trkpt lat="29.0060718" lon="104.7843211"><ele>346.25</ele><time>2026-06-06T00:05:14.000Z</time></trkpt>
        <trkpt lat="29.0061771" lon="104.7843106"><ele>346.67</ele><time>2026-06-06T00:05:24.000Z</time></trkpt>
        <trkpt lat="29.0062808" lon="104.7842345"><ele>347.48</ele><time>2026-06-06T00:05:36.000Z</time></trkpt>
        <trkpt lat="29.0063692" lon="104.7842486"><ele>348.73</ele><time>2026-06-06T00:05:44.000Z</time></trkpt>
        <trkpt lat="29.0064598" lon="104.7842757"><ele>349.87</ele><time>2026-06-06T00:05:54.000Z</time></trkpt>
        <trkpt lat="29.0065558" lon="104.784301"><ele>351.25</ele><time>2026-06-06T00:06:04.000Z</time></trkpt>
        <trkpt lat="29.0066405" lon="104.7843484"><ele>352.52</ele><time>2026-06-06T00:06:14.000Z</time></trkpt>
        <trkpt lat="29.0067232" lon="104.7844151"><ele>353.14</ele><time>2026-06-06T00:06:26.000Z</time></trkpt>
        <trkpt lat="29.0067976" lon="104.7845029"><ele>353.64</ele><time>2026-06-06T00:06:36.000Z</time></trkpt>
        <trkpt lat="29.006866" lon="104.7845811"><ele>354.21</ele><time>2026-06-06T00:06:46.000Z</time></trkpt>
        <trkpt lat="29.0069399" lon="104.7846531"><ele>354.94</ele><time>2026-06-06T00:06:56.000Z</time></trkpt>
        <trkpt lat="29.007006" lon="104.78473"><ele>356.6</ele><time>2026-06-06T00:07:04.000Z</time></trkpt>
        <trkpt lat="29.0070577" lon="104.7848164"><ele>356.77</ele><time>2026-06-06T00:07:16.000Z</time></trkpt>
        <trkpt lat="29.0070907" lon="104.7849152"><ele>356.36</ele><time>2026-06-06T00:07:32.000Z</time></trkpt>
        <trkpt lat="29.0071544" lon="104.7850011"><ele>355.39</ele><time>2026-06-06T00:07:40.000Z</time></trkpt>
        <trkpt lat="29.0072331" lon="104.7850604"><ele>354.62</ele><time>2026-06-06T00:07:48.000Z</time></trkpt>
        <trkpt lat="29.0073017" lon="104.7850149"><ele>353.25</ele><time>2026-06-06T00:07:58.000Z</time></trkpt>
        <trkpt lat="29.0073446" lon="104.7849107"><ele>353.03</ele><time>2026-06-06T00:08:07.000Z</time></trkpt>
        <trkpt lat="29.0073778" lon="104.7847911"><ele>352.72</ele><time>2026-06-06T00:08:15.000Z</time></trkpt>
        <trkpt lat="29.0074388" lon="104.7846913"><ele>353.29</ele><time>2026-06-06T00:08:25.000Z</time></trkpt>
        <trkpt lat="29.0075139" lon="104.7846114"><ele>353.55</ele><time>2026-06-06T00:08:35.000Z</time></trkpt>
        <trkpt lat="29.0075986" lon="104.7845508"><ele>353.44</ele><time>2026-06-06T00:08:43.000Z</time></trkpt>
        <trkpt lat="29.0076783" lon="104.7844914"><ele>353.64</ele><time>2026-06-06T00:08:55.000Z</time></trkpt>
        <trkpt lat="29.0077453" lon="104.7844158"><ele>353.18</ele><time>2026-06-06T00:09:06.000Z</time></trkpt>
        <trkpt lat="29.0077453" lon="104.7844158"><ele>353.18</ele><time>2026-06-06T00:10:40.000Z</time></trkpt>
      </trkseg>
  </trk>
</gpx>